MOUNT RAINIER
GEOLOGY & WEATHER
Hello guest! [ Log In ]
morageology.com Water Data for White River at White River Bridge

White River at White River Bridge

Date Range to view:
 
[ Graphical View | Weather History ]

View this data in a CSV Format

GMT Date/Time Local Date/Time Stage (ft) Rainfall (in) Turbidity (ntu) Air Temperature (°C) Water Temperature (°C) Enclosure Temperature (°C) Dissolved Oxygen Temperature (°C) Turbidity Temperature (°C) 10-hour Fuel Temperature (°C) Water Conductivity (μS/cm) Dissolved Oxygen Level (mg/l) Snow Depth (m) Air Level (psi) Water Level (psi) Battery (V) Solar Panel (V) Slave Radio Battery Voltage (v) Slave Radio Solar Voltage (v) Master Radio Signal Strength (%) Slave Radio Signal Strength (%)
2022-05-19 07:00:00 2022-05-19 00:00:00 0.2796 42.48 -999.00 0.6550 1.8950 -0.8 -999.0000 -999 -0.1 12.5140 -999.0000 2.372 12.7390 12.8600 13.2 0.0 12.9900 0.0000 4.0000 5.0000
2022-05-19 07:15:00 2022-05-19 00:15:00 0.2796 42.48 -999.00 0.5640 1.8670 -0.7 -999.0000 -999 -0.3 12.4890 -999.0000 2.372 12.7430 12.8640 13.1 0.0 12.9900 0.0000 5.0000 6.0000
2022-05-19 07:30:00 2022-05-19 00:30:00 0.2819 42.48 -999.00 0.4630 1.8290 -0.7 -999.0000 -999 -0.3 12.4820 -999.0000 2.377 12.7460 12.8680 13.1 0.0 12.9700 0.0000 6.0000 4.0000
2022-05-19 07:45:00 2022-05-19 00:45:00 0.2773 42.48 -999.00 0.4690 1.7980 -0.8 -999.0000 -999 -0.1 12.4710 -999.0000 2.377 12.7430 12.8630 13.1 0.0 12.9600 0.0000 5.0000 3.0000
2022-05-19 08:00:00 2022-05-19 01:00:00 0.2842 42.48 -999.00 0.2750 1.7730 -0.8 -999.0000 -999 -0.1 12.4640 -999.0000 2.371 12.7420 12.8650 13.1 0.0 12.9600 0.0000 6.0000 8.0000
2022-05-19 08:15:00 2022-05-19 01:15:00 0.2819 42.48 -999.00 0.0930 1.7550 -0.8 -999.0000 -999 -0.2 12.4660 -999.0000 2.373 12.7410 12.8630 13.1 0.1 12.9500 0.0000 4.0000 10.0000
2022-05-19 08:30:00 2022-05-19 01:30:00 0.2773 42.48 -999.00 -0.1020 1.7420 -0.8 -999.0000 -999 -0.2 12.4580 -999.0000 2.374 12.7410 12.8610 13.1 0.0 12.9500 0.0000 6.0000 10.0000
2022-05-19 08:45:00 2022-05-19 01:45:00 0.2773 42.48 -999.00 -0.4830 1.7340 -1.0 -999.0000 -999 -0.6 12.4610 -999.0000 2.375 12.7390 12.8590 13.1 0.0 12.9400 0.0000 4.0000 9.0000
2022-05-19 09:00:00 2022-05-19 02:00:00 0.2773 42.48 -999.00 -0.7180 1.7210 -1.0 -999.0000 -999 -0.7 12.4710 -999.0000 2.374 12.7340 12.8540 13.1 0.0 12.9400 0.0000 7.0000 4.0000
2022-05-19 09:15:00 2022-05-19 02:15:00 0.2750 42.48 -999.00 -0.6920 1.7050 -1.2 -999.0000 -999 -0.9 12.4760 -999.0000 2.382 12.7340 12.8530 13.1 0.0 12.9300 0.0000 6.0000 7.0000
2022-05-19 09:30:00 2022-05-19 02:30:00 0.2727 42.48 -999.00 -0.3620 1.6870 -1.2 -999.0000 -999 -0.8 12.4800 -999.0000 2.381 12.7340 12.8520 13.1 0.0 12.9400 0.0000 2.0000 2.0000
2022-05-19 09:45:00 2022-05-19 02:45:00 0.2611 42.48 -999.00 0.0820 1.6600 -1.4 -999.0000 -999 -0.5 12.4810 -999.0000 2.377 12.7340 12.8470 13.1 0.0 12.9300 0.0000 5.0000 9.0000
2022-05-19 10:00:00 2022-05-19 03:00:00 0.2611 42.48 -999.00 0.1440 1.6360 -1.5 -999.0000 -999 -0.3 12.4910 -999.0000 2.379 12.7350 12.8480 13.1 0.1 12.9300 0.0000 4.0000 0.0000
2022-05-19 10:15:00 2022-05-19 03:15:00 0.2634 42.48 -999.00 0.1730 1.6170 -1.4 -999.0000 -999 -0.4 12.4810 -999.0000 2.380 12.7320 12.8460 13.1 0.0 12.9100 0.0000 7.0000 5.0000
2022-05-19 10:30:00 2022-05-19 03:30:00 0.2657 42.48 -999.00 0.3410 1.5950 -1.4 -999.0000 -999 -0.4 12.4790 -999.0000 2.377 12.7340 12.8490 13.1 0.0 12.9100 0.0000 7.0000 8.0000
2022-05-19 10:45:00 2022-05-19 03:45:00 0.2634 42.48 -999.00 0.2360 1.5780 -1.4 -999.0000 -999 -0.3 12.4790 -999.0000 2.380 12.7330 12.8470 13.1 0.0 12.9200 0.0000 4.0000 9.0000
2022-05-19 11:00:00 2022-05-19 04:00:00 0.2657 42.48 -999.00 0.1450 1.5650 -1.2 -999.0000 -999 -0.4 12.4870 -999.0000 2.381 12.7320 12.8470 13.1 0.0 12.9000 0.0000 6.0000 5.0000
2022-05-19 11:15:00 2022-05-19 04:15:00 0.2611 42.48 -999.00 0.0940 1.5570 -1.2 -999.0000 -999 -0.3 12.4790 -999.0000 2.382 12.7310 12.8440 13.0 0.0 12.9100 0.0000 4.0000 8.0000
2022-05-19 11:30:00 2022-05-19 04:30:00 0.2611 42.48 -999.00 0.0270 1.5510 -1.2 -999.0000 -999 -0.3 12.4850 -999.0000 2.383 12.7330 12.8460 13.1 0.1 12.8900 0.0000 4.0000 6.0000
2022-05-19 11:45:00 2022-05-19 04:45:00 0.2657 42.48 -999.00 -0.0640 1.5430 -1.2 -999.0000 -999 -0.4 12.4910 -999.0000 2.382 12.7320 12.8470 13.1 0.1 12.9100 0.0000 3.0000 6.0000
2022-05-19 12:00:00 2022-05-19 05:00:00 0.2657 42.48 -999.00 -0.1710 1.5370 -1.4 -999.0000 -999 -0.4 12.4950 -999.0000 2.380 12.7340 12.8490 13.1 0.8 12.9000 0.0000 5.0000 8.0000
2022-05-19 12:15:00 2022-05-19 05:15:00 0.2727 42.48 -999.00 -0.5070 1.5320 -1.2 -999.0000 -999 -0.6 12.5010 -999.0000 2.379 12.7300 12.8480 13.0 5.5 12.8900 0.0000 5.0000 9.0000
2022-05-19 12:30:00 2022-05-19 05:30:00 0.2681 42.48 -999.00 -0.5820 1.5180 -1.4 -999.0000 -999 -0.4 12.5150 -999.0000 -0.005 12.7270 12.8430 13.1 11.2 12.8800 0.0000 5.0000 5.0000
2022-05-19 12:45:00 2022-05-19 05:45:00 0.2704 42.48 -999.00 -0.5640 1.5010 -1.4 -999.0000 -999 -0.3 12.5210 -999.0000 2.383 12.7270 12.8440 13.1 13.0 12.8800 9.9200 8.0000 7.0000
2022-05-19 13:00:00 2022-05-19 06:00:00 0.2657 42.48 -999.00 -0.5150 1.4860 -1.5 -999.0000 -999 -0.3 12.5280 -999.0000 2.382 12.7270 12.8420 13.1 13.1 12.8900 11.8500 6.0000 6.0000
2022-05-19 13:15:00 2022-05-19 06:15:00 0.2681 42.48 -999.00 -0.4610 1.4780 -1.4 -999.0000 -999 -0.2 12.5320 -999.0000 2.380 12.7250 12.8410 13.0 13.0 12.9000 12.9600 5.0000 9.0000
2022-05-19 13:30:00 2022-05-19 06:30:00 0.2657 42.48 -999.00 -0.2860 1.4820 -1.4 -999.0000 -999 0.0 12.5460 -999.0000 2.384 12.7250 12.8400 13.1 13.1 12.9300 13.0000 6.0000 7.0000
2022-05-19 13:45:00 2022-05-19 06:45:00 0.2634 42.48 -999.00 -0.1760 1.5010 -1.2 -999.0000 -999 0.0 12.5470 -999.0000 2.378 12.7270 12.8410 13.1 13.1 12.9500 13.0000 4.0000 8.0000
2022-05-19 14:00:00 2022-05-19 07:00:00 0.2634 42.48 -999.00 -0.3840 1.5190 -1.0 -999.0000 -999 0.0 12.5580 -999.0000 2.378 12.7280 12.8420 13.1 13.1 12.9600 13.0300 6.0000 6.0000
2022-05-19 14:15:00 2022-05-19 07:15:00 0.2681 42.48 -999.00 -0.5540 1.5210 -1.0 -999.0000 -999 -0.1 12.5720 -999.0000 2.378 12.7250 12.8410 13.1 13.1 12.9600 13.0300 6.0000 4.0000
2022-05-19 14:30:00 2022-05-19 07:30:00 0.2634 42.48 -999.00 -0.4160 1.5180 -0.8 -999.0000 -999 -0.1 12.5760 -999.0000 2.378 12.7260 12.8400 13.1 13.1 12.9800 13.0500 3.0000 11.0000
2022-05-19 14:45:00 2022-05-19 07:45:00 0.2611 42.48 -999.00 -0.1390 1.5340 -0.8 -999.0000 -999 0.0 12.5880 -999.0000 2.380 12.7270 12.8400 13.1 13.2 13.0200 13.0900 7.0000 8.0000
2022-05-19 15:00:00 2022-05-19 08:00:00 0.2519 42.48 -999.00 -0.1590 1.5600 -0.8 -999.0000 -999 -0.1 12.6040 -999.0000 2.379 12.7290 12.8380 13.2 13.2 13.0500 13.1600 5.0000 6.0000
2022-05-19 15:15:00 2022-05-19 08:15:00 0.2588 42.48 -999.00 0.0850 1.5900 -0.5 -999.0000 -999 0.1 12.6300 -999.0000 2.378 12.7350 12.8470 13.1 13.2 13.0600 13.1600 6.0000 12.0000
2022-05-19 15:30:00 2022-05-19 08:30:00 0.2542 42.48 -999.00 0.2860 1.6290 -0.5 -999.0000 -999 0.1 12.6590 -999.0000 2.377 12.7360 12.8460 13.2 13.2 13.1300 13.2200 7.0000 10.0000
2022-05-19 15:45:00 2022-05-19 08:45:00 0.2519 42.48 -999.00 0.2200 1.6690 -0.5 -999.0000 -999 0.3 12.6790 -999.0000 2.380 12.7400 12.8490 13.2 13.2 13.2400 13.3500 3.0000 4.0000
2022-05-19 16:00:00 2022-05-19 09:00:00 0.2496 42.48 -999.00 0.3770 1.7190 -0.5 -999.0000 -999 0.5 12.6920 -999.0000 2.381 12.7420 12.8500 13.2 13.3 13.9600 16.7500 3.0000 8.0000
2022-05-19 16:15:00 2022-05-19 09:15:00 0.2473 42.48 -999.00 0.3050 1.7670 -0.1 -999.0000 -999 0.7 12.7210 -999.0000 2.375 12.7460 12.8530 13.3 13.3 13.9700 17.5700 2.0000 4.0000
2022-05-19 16:30:00 2022-05-19 09:30:00 0.2519 42.49 -999.00 0.2040 1.7970 0.2 -999.0000 -999 0.8 12.7320 -999.0000 2.379 12.7440 12.8530 13.4 13.4 13.9700 20.1300 2.0000 8.0000
2022-05-19 16:45:00 2022-05-19 09:45:00 0.2380 42.49 -999.00 1.2390 1.8420 0.4 -999.0000 -999 1.9 12.7570 -999.0000 2.385 12.7510 12.8540 13.7 13.8 13.9700 19.6500 6.0000 7.0000
2022-05-19 17:00:00 2022-05-19 10:00:00 0.2380 42.50 -999.00 1.4750 1.9370 0.9 -999.0000 -999 2.9 12.7940 -999.0000 0.005 12.7510 12.8540 14.5 22.3 13.9700 20.7400 6.0000 7.0000
2022-05-19 17:15:00 2022-05-19 10:15:00 0.2288 42.51 -999.00 2.1760 2.0970 2.5 -999.0000 -999 3.8 12.8580 -999.0000 2.330 12.7530 12.8520 14.3 22.0 13.9600 20.4400 6.0000 8.0000
2022-05-19 17:30:00 2022-05-19 10:30:00 0.2311 42.51 -999.00 2.7050 2.2940 4.2 -999.0000 -999 7.5 12.9450 -999.0000 2.393 12.7560 12.8560 14.2 21.7 13.9800 20.8100 5.0000 4.0000
2022-05-19 17:45:00 2022-05-19 10:45:00 0.2241 42.51 -999.00 3.0900 2.5050 6.5 -999.0000 -999 10.4 13.0440 -999.0000 2.387 12.7570 12.8540 14.0 21.6 13.9700 20.8100 6.0000 7.0000
2022-05-19 18:00:00 2022-05-19 11:00:00 0.2195 42.51 -999.00 3.8260 2.7260 9.1 -999.0000 -999 12.3 13.1470 -999.0000 2.388 12.7590 12.8540 13.9 21.5 13.9700 20.5200 4.0000 3.0000
2022-05-19 18:15:00 2022-05-19 11:15:00 0.2241 42.51 -999.00 3.8670 2.9500 11.5 -999.0000 -999 13.5 13.2590 -999.0000 2.389 12.7590 12.8560 13.8 21.3 13.9800 19.5000 6.0000 6.0000
2022-05-19 18:30:00 2022-05-19 11:30:00 0.2126 42.51 -999.00 4.8870 3.1840 13.6 -999.0000 -999 15.1 13.3700 -999.0000 2.382 12.7660 12.8580 13.8 21.2 13.9700 20.2000 6.0000 10.0000
2022-05-19 18:45:00 2022-05-19 11:45:00 0.2195 42.51 -999.00 4.6720 3.3980 15.1 -999.0000 -999 15.3 13.4640 -999.0000 2.383 12.7650 12.8600 13.8 20.2 13.9700 19.7200 2.0000 7.0000
2022-05-19 19:00:00 2022-05-19 12:00:00 0.2172 42.51 -999.00 5.3860 3.6030 16.0 -999.0000 -999 17.2 13.5640 -999.0000 2.385 12.7650 12.8590 13.9 20.9 13.9800 20.1100 4.0000 10.0000
2022-05-19 19:15:00 2022-05-19 12:15:00 0.2126 42.51 -999.00 5.6760 3.8360 17.1 -999.0000 -999 18.1 13.6770 -999.0000 2.381 12.7680 12.8600 13.8 21.0 13.9700 20.1500 3.0000 9.0000
2022-05-19 19:30:00 2022-05-19 12:30:00 0.2080 42.51 -999.00 5.7280 4.0540 17.8 -999.0000 -999 19.1 13.7770 -999.0000 2.397 12.7690 12.8590 13.8 20.9 13.9800 20.2600 1.0000 6.0000
2022-05-19 19:45:00 2022-05-19 12:45:00 0.2172 42.51 -999.00 5.5820 4.2400 17.9 -999.0000 -999 19.9 13.8820 -999.0000 2.390 12.7670 12.8610 13.8 20.8 13.9700 20.2000 5.0000 12.0000
2022-05-19 20:00:00 2022-05-19 13:00:00 0.2103 42.51 -999.00 5.9490 4.4090 17.8 -999.0000 -999 19.6 13.9750 -999.0000 2.388 12.7730 12.8640 13.8 21.1 13.9800 20.3000 5.0000 6.0000
2022-05-19 20:15:00 2022-05-19 13:15:00 0.2149 42.51 -999.00 5.6800 4.5610 17.8 -999.0000 -999 20.0 14.0810 -999.0000 2.394 12.7720 12.8650 13.7 21.0 13.9800 20.0900 1.0000 10.0000
2022-05-19 20:30:00 2022-05-19 13:30:00 0.2172 42.51 -999.00 5.7340 4.6930 17.6 -999.0000 -999 19.6 14.1660 -999.0000 2.406 12.7740 12.8680 13.7 21.1 13.9800 19.3800 3.0000 11.0000
2022-05-19 20:45:00 2022-05-19 13:45:00 0.2057 42.51 -999.00 5.7720 4.8170 17.4 -999.0000 -999 19.7 14.2490 -999.0000 2.417 12.7770 12.8660 13.9 21.1 13.9800 19.3800 3.0000 9.0000
2022-05-19 21:00:00 2022-05-19 14:00:00 0.2010 42.51 -999.00 6.1650 4.9330 17.6 -999.0000 -999 18.9 14.3270 -999.0000 2.419 12.7770 12.8640 13.7 21.1 13.9900 19.6800 3.0000 11.0000
2022-05-19 21:15:00 2022-05-19 14:15:00 0.2080 42.51 -999.00 6.1470 5.0280 18.3 -999.0000 -999 18.4 14.4110 -999.0000 2.421 12.7790 12.8690 13.7 21.4 13.9800 20.0200 2.0000 7.0000
2022-05-19 21:30:00 2022-05-19 14:30:00 0.2103 42.51 -999.00 5.8770 5.0910 18.8 -999.0000 -999 17.9 14.4670 -999.0000 2.427 12.7790 12.8700 13.8 21.0 13.9800 19.6400 5.0000 8.0000
2022-05-19 21:45:00 2022-05-19 14:45:00 0.2057 42.51 -999.00 6.2400 5.1290 19.3 -999.0000 -999 18.8 14.5020 -999.0000 0.028 12.7790 12.8680 13.7 21.4 13.9700 19.2300 4.0000 8.0000
2022-05-19 22:00:00 2022-05-19 15:00:00 0.2103 42.51 -999.00 4.6850 5.1450 19.8 -999.0000 -999 13.7 14.5350 -999.0000 0.017 12.7860 12.8770 13.7 21.9 13.9700 19.5700 2.0000 7.0000
2022-05-19 22:15:00 2022-05-19 15:15:00 0.2103 42.51 -999.00 4.7160 5.1120 19.3 -999.0000 -999 12.1 14.5430 -999.0000 0.034 12.7820 12.8730 13.7 21.5 13.9700 19.4200 2.0000 10.0000
2022-05-19 22:30:00 2022-05-19 15:30:00 0.2080 42.51 -999.00 4.9940 5.0230 18.1 -999.0000 -999 9.9 14.5340 -999.0000 2.429 12.7890 12.8790 13.9 14.0 13.9800 19.0300 2.0000 4.0000
2022-05-19 22:45:00 2022-05-19 15:45:00 0.2149 42.51 -999.00 3.3490 4.8900 16.2 -999.0000 -999 6.1 14.5020 -999.0000 0.021 12.7910 12.8840 13.7 20.5 13.9800 15.0900 5.0000 11.0000
2022-05-19 23:00:00 2022-05-19 16:00:00 0.2311 42.51 -999.00 1.8350 4.6880 13.6 -999.0000 -999 2.6 14.4320 -999.0000 0.007 12.7860 12.8860 13.8 13.8 13.9700 14.1800 5.0000 13.0000
2022-05-19 23:15:00 2022-05-19 16:15:00 0.2288 42.51 -999.00 1.3370 4.3790 10.8 -999.0000 -999 2.0 14.3220 -999.0000 2.381 12.7820 12.8810 14.0 14.1 13.9700 17.6900 8.0000 8.0000
2022-05-19 23:30:00 2022-05-19 16:30:00 0.2265 42.53 -999.00 1.3120 4.1300 8.9 -999.0000 -999 2.8 14.2090 -999.0000 2.415 12.7830 12.8810 13.8 13.8 13.9900 17.1800 5.0000 9.0000
2022-05-19 23:45:00 2022-05-19 16:45:00 0.2241 42.54 -999.00 1.5480 3.9780 7.5 -999.0000 -999 3.2 14.1390 -999.0000 0.015 12.7840 12.8810 13.7 21.0 13.9800 17.5300 8.0000 3.0000
2022-05-20 00:00:00 2022-05-19 17:00:00 0.2195 42.55 -999.00 1.8700 3.8740 6.5 -999.0000 -999 3.4 14.0960 -999.0000 0.027 12.7840 12.8790 14.2 14.3 13.9700 18.8500 2.0000 9.0000
2022-05-20 00:15:00 2022-05-19 17:15:00 0.2126 42.55 -999.00 2.0040 3.7850 5.9 -999.0000 -999 3.3 14.0730 -999.0000 -0.005 12.7860 12.8780 13.9 21.4 13.9800 18.5300 7.0000 9.0000
2022-05-20 00:30:00 2022-05-19 17:30:00 0.2126 42.55 -999.00 2.0370 3.6750 5.2 -999.0000 -999 3.3 14.0330 -999.0000 -0.005 12.7860 12.8780 13.7 13.8 13.9800 14.1800 8.0000 9.0000
2022-05-20 00:45:00 2022-05-19 17:45:00 0.2126 42.55 -999.00 1.9230 3.5680 4.5 -999.0000 -999 2.9 14.0100 -999.0000 -0.001 12.7880 12.8800 14.1 14.1 13.9700 14.1800 5.0000 8.0000
2022-05-20 01:00:00 2022-05-19 18:00:00 0.2149 42.55 -999.00 1.8790 3.4680 4.0 -999.0000 -999 2.8 13.9870 -999.0000 0.014 12.7870 12.8800 13.8 13.9 13.9800 16.9100 7.0000 8.0000
2022-05-20 01:15:00 2022-05-19 18:15:00 0.2126 42.55 -999.00 2.0080 3.3830 3.9 -999.0000 -999 2.9 13.9610 -999.0000 0.013 12.7870 12.8790 14.0 14.0 13.9700 14.1100 2.0000 9.0000
2022-05-20 01:30:00 2022-05-19 18:30:00 0.2149 42.55 -999.00 1.7440 3.3100 3.7 -999.0000 -999 2.1 13.9330 -999.0000 0.019 12.7870 12.8800 14.1 14.1 13.8200 13.8900 5.0000 9.0000
2022-05-20 01:45:00 2022-05-19 18:45:00 0.2103 42.55 -999.00 1.4800 3.2360 3.2 -999.0000 -999 1.6 13.9280 -999.0000 0.012 12.7870 12.8780 13.9 13.9 13.8500 13.9100 3.0000 7.0000
2022-05-20 02:00:00 2022-05-19 19:00:00 0.2195 42.55 -999.00 1.0130 3.1630 2.6 -999.0000 -999 1.1 13.9170 -999.0000 0.015 12.7860 12.8810 13.8 13.8 13.5400 13.5900 5.0000 10.0000
2022-05-20 02:15:00 2022-05-19 19:15:00 0.2218 42.55 -999.00 0.7140 3.0880 2.3 -999.0000 -999 0.8 13.9220 -999.0000 0.013 12.7840 12.8800 13.7 13.8 13.3900 13.4000 1.0000 5.0000
2022-05-20 02:30:00 2022-05-19 19:30:00 0.2195 42.55 -999.00 0.5960 2.9910 1.9 -999.0000 -999 0.6 13.9130 -999.0000 0.021 12.7860 12.8810 13.7 13.8 13.3300 13.4000 7.0000 7.0000
2022-05-20 02:45:00 2022-05-19 19:45:00 0.2149 42.55 -999.00 0.6650 2.8840 1.4 -999.0000 -999 1.0 13.8970 -999.0000 0.012 12.7890 12.8820 13.8 13.8 13.3200 13.3700 1.0000 6.0000
2022-05-20 03:00:00 2022-05-19 20:00:00 0.2195 42.55 -999.00 0.6480 2.7790 1.1 -999.0000 -999 1.0 13.8950 -999.0000 0.023 12.7910 12.8860 13.7 13.7 13.2300 12.3200 5.0000 10.0000
2022-05-20 03:15:00 2022-05-19 20:15:00 0.2195 42.55 -999.00 0.5850 2.6810 0.9 -999.0000 -999 1.0 13.8830 -999.0000 -0.001 12.7940 12.8890 13.6 13.6 13.1800 12.0700 6.0000 9.0000
2022-05-20 03:30:00 2022-05-19 20:30:00 0.2149 42.55 -999.00 0.5820 2.5930 0.9 -999.0000 -999 0.9 13.8700 -999.0000 0.007 12.7940 12.8870 13.6 13.1 13.1500 0.0000 5.0000 10.0000
2022-05-20 03:45:00 2022-05-19 20:45:00 0.2172 42.55 -999.00 0.6300 2.5140 0.6 -999.0000 -999 0.8 13.8570 -999.0000 0.013 12.7950 12.8890 13.5 11.2 13.1400 0.0000 7.0000 5.0000
2022-05-20 04:00:00 2022-05-19 21:00:00 0.2126 42.55 -999.00 0.6770 2.4410 0.4 -999.0000 -999 0.8 13.8470 -999.0000 0.017 12.7970 12.8890 13.5 5.1 13.1300 0.0000 6.0000 7.0000
2022-05-20 04:15:00 2022-05-19 21:15:00 -999.0000 42.55 -999.00 0.6650 -999.0000 0.4 -999.0000 -999 0.7 -999.0000 -999.0000 0.010 12.7980 -999.0000 13.4 0.8 13.1100 0.0000 4.0000 5.0000
2022-05-20 04:30:00 2022-05-19 21:30:00 0.2126 42.55 -999.00 0.5720 2.3030 0.2 -999.0000 -999 0.3 13.8310 -999.0000 0.006 12.8000 12.8920 13.4 0.1 13.1000 0.0000 6.0000 11.0000
2022-05-20 04:45:00 2022-05-19 21:45:00 0.2126 42.55 -999.00 0.3260 2.2320 0.0 -999.0000 -999 0.0 13.8460 -999.0000 0.003 12.8010 12.8930 13.4 0.0 13.0800 0.0000 2.0000 4.0000
2022-05-20 05:00:00 2022-05-19 22:00:00 0.2149 42.55 -999.00 0.0580 2.1640 -0.3 -999.0000 -999 -0.3 13.8310 -999.0000 0.004 12.8020 12.8950 13.4 0.0 13.0800 0.0000 7.0000 8.0000
2022-05-20 05:15:00 2022-05-19 22:15:00 0.2172 42.55 -999.00 -0.1870 2.1000 -0.5 -999.0000 -999 -0.5 13.8350 -999.0000 0.008 12.7970 12.8910 13.3 0.0 13.0600 0.0000 6.0000 8.0000
2022-05-20 05:30:00 2022-05-19 22:30:00 0.2126 42.55 -999.00 -0.3930 2.0450 -0.7 -999.0000 -999 -0.8 13.8240 -999.0000 0.007 12.7990 12.8910 13.3 0.0 13.0600 0.0000 7.0000 10.0000
2022-05-20 05:45:00 2022-05-19 22:45:00 0.2172 42.55 -999.00 -0.4870 1.9970 -0.8 -999.0000 -999 -0.9 13.8250 -999.0000 0.004 12.8000 12.8940 13.3 0.0 13.0500 0.0000 4.0000 6.0000
2022-05-20 06:00:00 2022-05-19 23:00:00 0.2195 42.55 -999.00 -0.5670 1.9520 -1.0 -999.0000 -999 -0.9 13.8140 -999.0000 0.006 12.7970 12.8920 13.3 0.0 13.0400 0.0000 2.0000 6.0000
2022-05-20 06:15:00 2022-05-19 23:15:00 0.2126 42.55 -999.00 -0.5790 1.9100 -1.2 -999.0000 -999 -0.9 13.8220 -999.0000 0.005 12.7970 12.8890 13.2 0.0 13.0300 0.0000 1.0000 3.0000
2022-05-20 06:30:00 2022-05-19 23:30:00 0.2126 42.55 -999.00 -0.6080 1.8700 -1.4 -999.0000 -999 -0.2 13.8170 -999.0000 0.004 12.7960 12.8880 13.2 0.0 13.0200 0.0000 3.0000 5.0000
2022-05-20 06:45:00 2022-05-19 23:45:00 0.2103 42.55 -999.00 -0.6240 1.8360 -1.4 -999.0000 -999 -0.2 13.8250 -999.0000 0.003 12.7950 12.8860 13.2 0.0 13.0100 0.0000 6.0000 8.0000
2022-05-20 07:00:00 2022-05-20 00:00:00 0.2172 42.55 -999.00 -0.7360 1.8060 -1.7 -999.0000 -999 -0.3 13.8340 -999.0000 0.003 12.7960 12.8900 13.2 0.0 12.9900 0.0000 5.0000 7.0000
2022-05-20 07:15:00 2022-05-20 00:15:00 0.2149 42.55 -999.00 -0.8210 1.7780 -1.7 -999.0000 -999 -0.6 13.8450 -999.0000 0.007 12.7950 12.8880 13.2 0.0 12.9900 0.0000 6.0000 4.0000
2022-05-20 07:30:00 2022-05-20 00:30:00 0.2195 42.55 -999.00 -0.9050 1.7540 -1.7 -999.0000 -999 -0.7 13.8490 -999.0000 0.007 12.7960 12.8910 13.2 0.0 12.9900 0.0000 5.0000 6.0000
2022-05-20 07:45:00 2022-05-20 00:45:00 0.2172 42.55 -999.00 -0.9760 1.7350 -1.9 -999.0000 -999 -0.9 13.8630 -999.0000 0.006 12.7950 12.8890 13.2 0.0 12.9800 0.0000 6.0000 2.0000
2022-05-20 08:00:00 2022-05-20 01:00:00 0.2195 42.55 -999.00 -1.0550 1.7170 -2.1 -999.0000 -999 -1.1 13.8710 -999.0000 0.009 12.7950 12.8900 13.2 0.0 12.9600 0.0000 4.0000 8.0000
2022-05-20 08:15:00 2022-05-20 01:15:00 0.2172 42.55 -999.00 -1.1570 1.6990 -2.1 -999.0000 -999 -1.4 13.8800 -999.0000 0.007 12.7950 12.8890 13.1 0.0 12.9600 0.0000 5.0000 8.0000
2022-05-20 08:30:00 2022-05-20 01:30:00 0.2172 42.55 -999.00 -1.3360 1.6810 -2.1 -999.0000 -999 -1.7 13.8880 -999.0000 0.006 12.7950 12.8890 13.1 0.0 12.9600 0.0000 5.0000 8.0000
2022-05-20 08:45:00 2022-05-20 01:45:00 0.2149 42.55 -999.00 -1.3200 1.6660 -2.4 -999.0000 -999 -1.5 13.9140 -999.0000 0.005 12.7980 12.8910 13.1 0.0 12.9500 0.0000 6.0000 9.0000
2022-05-20 09:00:00 2022-05-20 02:00:00 0.2149 42.55 -999.00 -1.2620 1.6550 -2.4 -999.0000 -999 -1.4 13.9230 -999.0000 0.008 12.7990 12.8920 13.1 0.0 12.9500 0.0000 3.0000 5.0000
2022-05-20 09:15:00 2022-05-20 02:15:00 0.2126 42.55 -999.00 -1.1120 1.6470 -2.4 -999.0000 -999 -1.1 13.9360 -999.0000 0.004 12.7990 12.8910 13.1 0.0 12.9400 0.0000 2.0000 5.0000
2022-05-20 09:30:00 2022-05-20 02:30:00 0.2126 42.55 -999.00 -1.0190 1.6450 -2.2 -999.0000 -999 -0.9 13.9490 -999.0000 0.002 12.7990 12.8910 13.1 0.0 12.9300 0.0000 2.0000 7.0000
2022-05-20 09:45:00 2022-05-20 02:45:00 0.2057 42.55 -999.00 -0.9650 1.6490 -2.2 -999.0000 -999 -1.1 13.9550 -999.0000 0.000 12.7960 12.8850 13.1 0.0 12.9300 0.0000 4.0000 5.0000
2022-05-20 10:00:00 2022-05-20 03:00:00 0.2103 42.55 -999.00 -1.0900 1.6490 -2.2 -999.0000 -999 -1.5 13.9560 -999.0000 -0.001 12.7940 12.8850 13.1 0.0 12.9400 0.0000 5.0000 7.0000
2022-05-20 10:15:00 2022-05-20 03:15:00 0.2103 42.55 -999.00 -1.1520 1.6390 -2.4 -999.0000 -999 -1.6 13.9530 -999.0000 0.000 12.7930 12.8840 13.1 0.0 12.9200 0.0000 4.0000 7.0000
2022-05-20 10:30:00 2022-05-20 03:30:00 0.2103 42.55 -999.00 -1.2870 1.6230 -2.4 -999.0000 -999 -1.8 13.9520 -999.0000 0.000 12.7920 12.8830 13.1 0.0 12.9400 0.0000 4.0000 6.0000
2022-05-20 10:45:00 2022-05-20 03:45:00 0.2126 42.55 -999.00 -1.4570 1.6040 -2.6 -999.0000 -999 -1.9 13.9580 -999.0000 -0.002 12.7920 12.8840 13.0 0.0 12.9100 0.0000 4.0000 5.0000
2022-05-20 11:00:00 2022-05-20 04:00:00 0.2103 42.55 -999.00 -1.5580 1.5840 -2.7 -999.0000 -999 -2.0 13.9670 -999.0000 0.001 12.7910 12.8820 13.1 0.0 12.9100 0.0000 2.0000 5.0000
2022-05-20 11:15:00 2022-05-20 04:15:00 0.2103 42.55 -999.00 -1.6420 1.5660 -2.6 -999.0000 -999 -2.1 13.9730 -999.0000 0.003 12.7920 12.8830 13.0 0.0 12.9100 0.0000 5.0000 5.0000
2022-05-20 11:30:00 2022-05-20 04:30:00 0.2126 42.55 -999.00 -1.6340 1.5480 -2.7 -999.0000 -999 -2.0 13.9940 -999.0000 0.004 12.7920 12.8840 13.1 0.1 12.9000 0.0000 5.0000 5.0000
2022-05-20 11:45:00 2022-05-20 04:45:00 0.2126 42.55 -999.00 -1.6160 1.5310 -2.9 -999.0000 -999 -2.0 14.0140 -999.0000 0.003 12.7930 12.8850 13.1 0.3 12.8900 0.0000 3.0000 6.0000
2022-05-20 12:00:00 2022-05-20 05:00:00 0.2126 42.55 -999.00 -1.6160 1.5160 -2.9 -999.0000 -999 -2.0 14.0270 -999.0000 0.001 12.7930 12.8850 13.1 2.8 12.9000 0.0000 2.0000 11.0000
2022-05-20 12:15:00 2022-05-20 05:15:00 0.2126 42.55 -999.00 -1.6210 1.5040 -2.9 -999.0000 -999 -2.0 14.0380 -999.0000 0.001 12.7920 12.8840 13.0 11.1 12.9000 0.0000 5.0000 6.0000
2022-05-20 12:30:00 2022-05-20 05:30:00 0.2103 42.55 -999.00 -1.5870 1.4970 -2.9 -999.0000 -999 -1.9 14.0420 -999.0000 0.003 12.7930 12.8840 13.1 13.1 12.9000 6.7100 6.0000 5.0000
2022-05-20 12:45:00 2022-05-20 05:45:00 0.2126 42.55 -999.00 -1.5410 1.4960 -2.9 -999.0000 -999 -1.8 14.0550 -999.0000 0.003 12.7930 12.8850 13.0 13.1 12.8900 11.8000 3.0000 8.0000
2022-05-20 13:00:00 2022-05-20 06:00:00 0.2080 42.55 -999.00 -1.4210 1.5000 -2.9 -999.0000 -999 -1.6 14.0790 -999.0000 0.006 12.7940 12.8840 13.1 13.1 12.8900 12.2200 6.0000 9.0000
2022-05-20 13:15:00 2022-05-20 06:15:00 0.2057 42.55 -999.00 -1.3000 1.5060 -2.9 -999.0000 -999 -1.4 14.0880 -999.0000 0.002 12.7960 12.8850 13.0 13.0 12.9000 12.4600 7.0000 7.0000
2022-05-20 13:30:00 2022-05-20 06:30:00 0.2057 42.55 -999.00 -1.1530 1.5160 -2.7 -999.0000 -999 -1.1 14.0950 -999.0000 0.002 12.7960 12.8850 13.1 13.1 12.9000 12.9600 0.0000 2.0000
2022-05-20 13:45:00 2022-05-20 06:45:00 0.2010 42.55 -999.00 -0.9310 1.5330 -2.6 -999.0000 -999 -0.7 14.1150 -999.0000 0.004 12.7970 12.8840 13.1 13.2 12.9100 12.9600 4.0000 9.0000
2022-05-20 14:00:00 2022-05-20 07:00:00 0.1964 42.55 -999.00 -0.6940 1.5590 -2.6 -999.0000 -999 -0.4 14.1400 -999.0000 0.006 12.8000 12.8850 13.2 13.2 12.9300 12.9900 5.0000 4.0000
2022-05-20 14:15:00 2022-05-20 07:15:00 0.1964 42.55 -999.00 -0.4240 1.5890 -2.1 -999.0000 -999 -0.1 14.1750 -999.0000 0.007 12.8020 12.8870 13.2 13.3 12.9500 13.0500 3.0000 8.0000
2022-05-20 14:30:00 2022-05-20 07:30:00 0.1895 42.55 -999.00 -0.1090 1.6300 -1.7 -999.0000 -999 0.0 14.2180 -999.0000 0.014 12.8030 12.8850 13.3 13.4 12.9800 13.0900 6.0000 6.0000
2022-05-20 14:45:00 2022-05-20 07:45:00 0.1872 42.55 -999.00 0.2300 1.6800 -1.4 -999.0000 -999 0.1 14.2620 -999.0000 0.015 12.8050 12.8860 13.5 13.6 13.0500 13.1500 6.0000 8.0000
2022-05-20 15:00:00 2022-05-20 08:00:00 0.1895 42.55 -999.00 0.5920 1.7390 -1.0 -999.0000 -999 0.3 14.2930 -999.0000 0.016 12.8070 12.8890 13.6 13.6 13.1000 13.2000 4.0000 7.0000
2022-05-20 15:15:00 2022-05-20 08:15:00 0.1849 42.55 -999.00 0.7700 1.8020 -0.5 -999.0000 -999 0.3 14.3320 -999.0000 0.013 12.8080 12.8880 13.7 13.7 13.1400 13.2400 2.0000 7.0000
2022-05-20 15:30:00 2022-05-20 08:30:00 0.1872 42.55 -999.00 0.8210 1.8580 -0.1 -999.0000 -999 0.3 14.3790 -999.0000 0.007 12.8080 12.8890 13.8 13.8 13.1800 13.2800 4.0000 6.0000
2022-05-20 15:45:00 2022-05-20 08:45:00 0.1872 42.55 -999.00 0.9220 1.9030 0.0 -999.0000 -999 0.4 14.4000 -999.0000 0.008 12.8090 12.8900 14.3 14.4 13.4300 13.5700 5.0000 6.0000
2022-05-20 16:00:00 2022-05-20 09:00:00 -999.0000 42.55 -999.00 1.1930 -999.0000 0.4 -999.0000 -999 0.8 -999.0000 -999.0000 0.009 12.8100 -999.0000 14.1 21.4 13.9700 17.3100 4.0000 2.0000
2022-05-20 16:15:00 2022-05-20 09:15:00 0.1802 42.55 -999.00 1.8780 2.0850 0.7 -999.0000 -999 1.9 14.4490 -999.0000 0.018 12.8130 12.8910 14.1 21.7 13.9700 20.1700 5.0000 5.0000
2022-05-20 16:30:00 2022-05-20 09:30:00 0.1733 42.55 -999.00 3.0210 2.2850 1.6 -999.0000 -999 3.2 14.5250 -999.0000 0.010 12.8160 12.8910 13.9 21.7 13.9600 19.7500 5.0000 4.0000
2022-05-20 16:45:00 2022-05-20 09:45:00 0.1687 42.55 -999.00 3.5130 2.5360 2.6 -999.0000 -999 4.3 14.6360 -999.0000 0.015 12.8170 12.8900 14.0 22.0 13.9700 20.0900 4.0000 7.0000
2022-05-20 17:00:00 2022-05-20 10:00:00 0.1641 42.55 -999.00 3.9930 2.7450 4.0 -999.0000 -999 5.0 14.7390 -999.0000 0.029 12.8180 12.8890 13.9 21.6 13.9800 19.9400 4.0000 4.0000
2022-05-20 17:15:00 2022-05-20 10:15:00 0.1641 42.55 -999.00 4.6200 2.9300 5.4 -999.0000 -999 6.1 14.8330 -999.0000 0.035 12.8180 12.8890 14.6 21.6 13.9700 20.2300 2.0000 10.0000
2022-05-20 17:30:00 2022-05-20 10:30:00 0.1641 42.55 -999.00 4.8130 3.1060 7.2 -999.0000 -999 7.0 14.9340 -999.0000 0.030 12.8160 12.8870 14.3 21.4 13.9700 20.0800 3.0000 6.0000
2022-05-20 17:45:00 2022-05-20 10:45:00 0.1641 42.55 -999.00 5.3270 3.2750 8.9 -999.0000 -999 10.9 15.0230 -999.0000 -0.004 12.8160 12.8870 13.9 21.2 13.9700 20.5100 3.0000 6.0000
2022-05-20 18:00:00 2022-05-20 11:00:00 0.1594 42.55 -999.00 6.1630 3.4800 11.2 -999.0000 -999 14.4 15.1180 -999.0000 0.024 12.8140 12.8830 13.9 20.9 13.9700 20.1100 6.0000 5.0000
2022-05-20 18:15:00 2022-05-20 11:15:00 0.1548 42.55 -999.00 6.8320 3.7160 14.1 -999.0000 -999 16.6 15.2330 -999.0000 0.010 12.8140 12.8810 13.9 20.8 13.9900 20.0500 5.0000 4.0000
2022-05-20 18:30:00 2022-05-20 11:30:00 0.1594 42.55 -999.00 7.0130 3.9840 16.5 -999.0000 -999 17.9 15.3660 -999.0000 0.022 12.8130 12.8820 13.8 20.8 13.9700 19.9500 2.0000 10.0000
2022-05-20 18:45:00 2022-05-20 11:45:00 0.1641 42.55 -999.00 7.8550 4.2770 18.4 -999.0000 -999 19.0 15.5110 -999.0000 -0.003 12.8130 12.8840 13.8 20.8 13.9800 19.8900 2.0000 10.0000
2022-05-20 19:00:00 2022-05-20 12:00:00 0.1664 42.55 -999.00 8.0930 4.5400 19.8 -999.0000 -999 20.2 15.6680 -999.0000 0.014 12.8120 12.8840 13.9 20.7 13.9900 19.8800 4.0000 8.0000
2022-05-20 19:15:00 2022-05-20 12:15:00 0.1664 42.55 -999.00 8.0140 4.7670 20.7 -999.0000 -999 20.8 15.7880 -999.0000 0.020 12.8110 12.8830 13.8 20.8 13.9800 19.8500 3.0000 3.0000
2022-05-20 19:30:00 2022-05-20 12:30:00 0.1618 42.55 -999.00 7.8480 4.9530 20.9 -999.0000 -999 20.9 15.9040 -999.0000 0.019 12.8100 12.8800 13.7 20.8 13.9800 19.8800 3.0000 6.0000
2022-05-20 19:45:00 2022-05-20 12:45:00 0.1687 42.55 -999.00 8.0090 5.1280 20.7 -999.0000 -999 21.3 16.0150 -999.0000 0.027 12.8090 12.8820 13.7 20.7 13.9700 19.9400 3.0000 10.0000
2022-05-20 20:00:00 2022-05-20 13:00:00 0.1710 42.55 -999.00 8.4590 5.3180 20.4 -999.0000 -999 21.9 16.1170 -999.0000 0.023 12.8090 12.8830 13.7 20.7 13.9700 20.0000 4.0000 7.0000
2022-05-20 20:15:00 2022-05-20 13:15:00 0.1687 42.55 -999.00 8.9250 5.5080 20.0 -999.0000 -999 22.0 16.2430 -999.0000 0.021 12.8080 12.8810 13.7 20.7 13.9800 19.8500 4.0000 7.0000
2022-05-20 20:30:00 2022-05-20 13:30:00 0.1733 42.55 -999.00 8.8120 5.6840 19.8 -999.0000 -999 19.7 16.3530 -999.0000 0.013 12.8070 12.8820 13.7 20.7 13.9700 19.1200 2.0000 2.0000
2022-05-20 20:45:00 2022-05-20 13:45:00 0.1687 42.55 -999.00 8.8980 5.8270 19.8 -999.0000 -999 22.4 16.4410 -999.0000 0.031 12.8060 12.8790 13.7 20.7 13.9700 19.0800 2.0000 9.0000
2022-05-20 21:00:00 2022-05-20 14:00:00 0.1687 42.55 -999.00 9.6440 5.9510 20.4 -999.0000 -999 23.6 16.5290 -999.0000 0.018 12.8050 12.8780 13.6 20.7 13.9700 19.1600 4.0000 7.0000
2022-05-20 21:15:00 2022-05-20 14:15:00 0.1687 42.55 -999.00 9.5850 6.0780 21.4 -999.0000 -999 24.6 16.6090 -999.0000 0.026 12.8050 12.8780 13.7 20.8 13.9800 19.7100 5.0000 8.0000
2022-05-20 21:30:00 2022-05-20 14:30:00 0.1664 42.55 -999.00 8.2420 6.1980 21.9 -999.0000 -999 16.2 16.6950 -999.0000 0.024 12.8040 12.8760 13.7 20.5 13.9800 17.5400 5.0000 5.0000
2022-05-20 21:45:00 2022-05-20 14:45:00 0.1710 42.55 -999.00 7.3430 6.1020 20.4 -999.0000 -999 12.1 16.6790 -999.0000 0.028 12.8010 12.8750 13.7 22.5 13.9800 19.2600 4.0000 6.0000
2022-05-20 22:00:00 2022-05-20 15:00:00 0.1687 42.55 -999.00 8.6500 5.9980 19.5 -999.0000 -999 21.4 16.6230 -999.0000 0.038 12.8020 12.8750 13.7 21.0 13.9700 18.8100 3.0000 9.0000
2022-05-20 22:15:00 2022-05-20 15:15:00 0.1687 42.55 -999.00 8.9580 6.0960 21.1 -999.0000 -999 22.4 16.6450 -999.0000 0.045 12.8050 12.8780 13.7 19.9 13.9900 18.3500 3.0000 9.0000
2022-05-20 22:30:00 2022-05-20 15:30:00 0.1756 42.55 -999.00 7.8640 6.1120 21.4 -999.0000 -999 14.5 16.6610 -999.0000 0.035 12.8030 12.8790 13.9 20.6 13.9700 15.9800 4.0000 6.0000
2022-05-20 22:45:00 2022-05-20 15:45:00 0.1710 42.55 -999.00 7.9190 5.9460 20.0 -999.0000 -999 11.4 16.5910 -999.0000 0.019 12.8010 12.8750 13.7 20.9 13.9700 17.0800 3.0000 7.0000
2022-05-20 23:00:00 2022-05-20 16:00:00 0.1710 42.55 -999.00 7.7410 5.8990 18.1 -999.0000 -999 9.4 16.5550 -999.0000 0.033 12.7990 12.8730 13.7 13.8 13.9700 16.1900 5.0000 6.0000
2022-05-20 23:15:00 2022-05-20 16:15:00 0.1779 42.55 -999.00 7.5660 5.9080 16.5 -999.0000 -999 8.6 16.5590 -999.0000 0.015 12.7980 12.8750 14.2 14.2 13.9900 15.6000 3.0000 7.0000
2022-05-20 23:30:00 2022-05-20 16:30:00 0.1779 42.55 -999.00 7.2090 5.9020 15.0 -999.0000 -999 8.0 16.5550 -999.0000 0.017 12.7970 12.8740 13.7 20.4 13.9900 14.4600 4.0000 2.0000
2022-05-20 23:45:00 2022-05-20 16:45:00 0.1779 42.55 -999.00 6.7770 5.8560 13.4 -999.0000 -999 7.5 16.5430 -999.0000 0.021 12.7950 12.8720 13.7 20.5 13.9700 16.2200 5.0000 2.0000
2022-05-21 00:00:00 2022-05-20 17:00:00 0.1779 42.55 -999.00 6.7280 5.7830 12.2 -999.0000 -999 7.2 16.5210 -999.0000 0.033 12.7970 12.8740 13.7 20.5 13.9800 15.8400 4.0000 4.0000
2022-05-21 00:15:00 2022-05-20 17:15:00 0.1733 42.55 -999.00 6.7070 5.6920 11.3 -999.0000 -999 7.0 16.4820 -999.0000 0.015 12.7960 12.8710 14.5 20.4 13.9800 16.1500 3.0000 9.0000
2022-05-21 00:30:00 2022-05-20 17:30:00 0.1733 42.55 -999.00 6.7310 5.5870 10.5 -999.0000 -999 6.9 16.4400 -999.0000 0.026 12.7970 12.8720 13.8 20.7 13.9800 17.1100 5.0000 6.0000
2022-05-21 00:45:00 2022-05-20 17:45:00 0.1756 42.55 -999.00 6.4840 5.4670 9.8 -999.0000 -999 7.0 16.3970 -999.0000 0.017 12.7970 12.8730 13.9 20.7 13.9700 17.4200 3.0000 5.0000
2022-05-21 01:00:00 2022-05-20 18:00:00 0.1779 42.55 -999.00 6.3640 5.3350 9.2 -999.0000 -999 6.9 16.3370 -999.0000 0.025 12.7970 12.8740 13.7 20.8 13.9900 17.7600 0.0000 7.0000
2022-05-21 01:15:00 2022-05-20 18:15:00 0.1779 42.55 -999.00 6.5220 5.1810 8.9 -999.0000 -999 7.0 16.2750 -999.0000 0.025 12.7990 12.8760 14.3 20.5 13.9800 16.3100 5.0000 1.0000
2022-05-21 01:30:00 2022-05-20 18:30:00 0.1779 42.55 -999.00 6.1080 5.0050 8.7 -999.0000 -999 6.5 16.2010 -999.0000 0.020 12.8020 12.8790 14.0 14.0 13.9900 14.2200 4.0000 8.0000
2022-05-21 01:45:00 2022-05-20 18:45:00 0.1733 42.55 -999.00 5.5520 4.8010 8.2 -999.0000 -999 6.0 16.1180 -999.0000 0.020 12.8020 12.8770 13.7 19.7 13.9700 14.1800 3.0000 4.0000
2022-05-21 02:00:00 2022-05-20 19:00:00 0.1733 42.55 -999.00 5.0830 4.5740 7.9 -999.0000 -999 5.4 16.0150 -999.0000 0.037 12.8000 12.8750 14.4 14.5 13.9800 14.1900 6.0000 6.0000
2022-05-21 02:15:00 2022-05-20 19:15:00 0.1756 42.55 -999.00 4.7200 4.3610 7.2 -999.0000 -999 5.0 15.9120 -999.0000 0.028 12.7980 12.8740 13.7 13.8 13.9800 14.1500 4.0000 6.0000
2022-05-21 02:30:00 2022-05-20 19:30:00 0.1756 42.55 -999.00 4.3210 4.1700 6.8 -999.0000 -999 4.6 15.8100 -999.0000 0.001 12.7980 12.8740 14.1 14.1 13.9500 14.0700 6.0000 2.0000
2022-05-21 02:45:00 2022-05-20 19:45:00 0.1779 42.55 -999.00 3.8800 4.0000 6.3 -999.0000 -999 4.1 15.7260 -999.0000 0.011 12.7980 12.8750 13.9 13.9 13.7200 13.7900 5.0000 2.0000
2022-05-21 03:00:00 2022-05-20 20:00:00 0.1779 42.55 -999.00 3.5890 3.8360 5.6 -999.0000 -999 3.6 15.6600 -999.0000 0.015 12.7970 12.8740 13.8 13.8 13.4000 13.4400 6.0000 6.0000
2022-05-21 03:15:00 2022-05-20 20:15:00 0.1826 42.55 -999.00 3.3560 3.6770 5.2 -999.0000 -999 3.4 15.5820 -999.0000 0.015 12.7960 12.8750 13.6 13.7 13.2600 12.2000 5.0000 4.0000
2022-05-21 03:30:00 2022-05-20 20:30:00 0.1779 42.55 -999.00 3.0900 3.5270 4.7 -999.0000 -999 2.9 15.5210 -999.0000 0.008 12.7970 12.8740 13.6 13.6 13.2000 8.6200 6.0000 7.0000
2022-05-21 03:45:00 2022-05-20 20:45:00 0.1826 42.55 -999.00 2.7250 3.3840 4.0 -999.0000 -999 2.5 15.4620 -999.0000 0.011 12.7990 12.8780 13.6 12.8 13.1800 0.0000 3.0000 1.0000
2022-05-21 04:00:00 2022-05-20 21:00:00 0.1826 42.55 -999.00 2.5210 3.2530 3.7 -999.0000 -999 2.3 15.4010 -999.0000 0.010 12.7990 12.8780 13.5 7.1 13.1500 0.0000 4.0000 6.0000
2022-05-21 04:15:00 2022-05-20 21:15:00 0.1826 42.55 -999.00 2.3110 3.1340 3.2 -999.0000 -999 2.1 15.3480 -999.0000 0.014 12.7990 12.8780 13.5 0.8 13.1400 0.0000 6.0000 5.0000
2022-05-21 04:30:00 2022-05-20 21:30:00 0.1849 42.55 -999.00 2.1440 3.0280 2.8 -999.0000 -999 1.8 15.3130 -999.0000 0.015 12.7970 12.8770 13.4 0.1 13.1200 0.0000 6.0000 7.0000
2022-05-21 04:45:00 2022-05-20 21:45:00 0.1872 42.55 -999.00 1.8690 2.9290 2.5 -999.0000 -999 1.4 15.2690 -999.0000 0.014 12.7970 12.8780 13.4 0.1 13.1000 0.0000 2.0000 3.0000
2022-05-21 05:00:00 2022-05-20 22:00:00 0.1849 42.55 -999.00 1.5220 2.8340 1.9 -999.0000 -999 1.1 15.2200 -999.0000 0.015 12.7980 12.8780 13.4 0.0 13.1100 0.0000 5.0000 3.0000
2022-05-21 05:15:00 2022-05-20 22:15:00 0.1849 42.55 -999.00 1.2560 2.7430 1.6 -999.0000 -999 0.8 15.2090 -999.0000 0.013 12.7990 12.8790 13.3 0.0 13.0900 0.0000 4.0000 5.0000
2022-05-21 05:30:00 2022-05-20 22:30:00 0.1872 42.55 -999.00 1.0620 2.6600 1.2 -999.0000 -999 0.6 15.1760 -999.0000 0.010 12.7970 12.8780 13.3 0.0 13.0600 0.0000 6.0000 5.0000
2022-05-21 05:45:00 2022-05-20 22:45:00 0.1872 42.55 -999.00 0.8030 2.5820 0.9 -999.0000 -999 0.3 15.1410 -999.0000 0.012 12.7970 12.8780 13.3 0.0 13.0700 0.0000 6.0000 5.0000
2022-05-21 06:00:00 2022-05-20 23:00:00 0.1895 42.55 -999.00 0.5990 2.5120 0.6 -999.0000 -999 0.1 15.1080 -999.0000 0.009 12.7950 12.8770 13.3 0.0 13.0500 0.0000 5.0000 7.0000
2022-05-21 06:15:00 2022-05-20 23:15:00 0.1918 42.55 -999.00 0.3680 2.4480 0.4 -999.0000 -999 -0.1 15.0600 -999.0000 0.008 12.7940 12.8770 13.2 0.0 13.0400 0.0000 3.0000 5.0000
2022-05-21 06:30:00 2022-05-20 23:30:00 0.1872 42.55 -999.00 0.2560 2.3890 0.0 -999.0000 -999 -0.2 15.0190 -999.0000 0.010 12.7940 12.8750 13.2 0.0 13.0300 0.0000 5.0000 2.0000
2022-05-21 06:45:00 2022-05-20 23:45:00 0.1872 42.55 -999.00 0.2880 2.3340 -0.1 -999.0000 -999 -0.2 14.9850 -999.0000 0.009 12.7940 12.8750 13.2 0.0 13.0200 0.0000 5.0000 5.0000
2022-05-21 07:00:00 2022-05-21 00:00:00 0.1872 42.55 -999.00 0.2070 2.2830 -0.5 -999.0000 -999 -0.3 14.9440 -999.0000 0.009 12.7930 12.8740 13.2 0.0 13.0100 0.0000 5.0000 3.0000
2022-05-21 07:15:00 2022-05-21 00:15:00 0.1918 42.55 -999.00 0.1230 2.2340 -0.5 -999.0000 -999 -0.4 14.9080 -999.0000 0.005 12.7920 12.8750 13.2 0.0 13.0100 0.0000 6.0000 7.0000
2022-05-21 07:30:00 2022-05-21 00:30:00 0.1918 42.55 -999.00 -0.0130 2.1870 -0.7 -999.0000 -999 -0.5 14.8750 -999.0000 0.008 12.7920 12.8750 13.2 0.1 12.9900 0.0000 3.0000 4.0000
2022-05-21 07:45:00 2022-05-21 00:45:00 0.1987 42.55 -999.00 -0.1350 2.1410 -0.8 -999.0000 -999 -0.6 14.8600 -999.0000 0.012 12.7910 12.8770 13.2 0.0 12.9900 0.0000 6.0000 6.0000
2022-05-21 08:00:00 2022-05-21 01:00:00 0.1941 42.55 -999.00 -0.2100 2.0960 -1.2 -999.0000 -999 -0.7 14.8360 -999.0000 0.011 12.7900 12.8740 13.2 0.0 12.9900 0.0000 6.0000 4.0000
2022-05-21 08:15:00 2022-05-21 01:15:00 0.2010 42.55 -999.00 -0.2840 2.0530 -1.2 -999.0000 -999 -0.7 14.8090 -999.0000 0.014 12.7880 12.8750 13.1 0.0 12.9800 0.0000 4.0000 2.0000
2022-05-21 08:30:00 2022-05-21 01:30:00 0.1964 42.55 -999.00 -0.3400 2.0120 -1.2 -999.0000 -999 -0.9 14.7920 -999.0000 0.008 12.7880 12.8730 13.1 0.0 12.9800 0.0000 5.0000 2.0000
2022-05-21 08:45:00 2022-05-21 01:45:00 0.1964 42.55 -999.00 -0.4310 1.9760 -1.4 -999.0000 -999 -0.9 14.7720 -999.0000 0.004 12.7870 12.8720 13.1 0.0 12.9700 0.0000 5.0000 5.0000
2022-05-21 09:00:00 2022-05-21 02:00:00 0.1987 42.55 -999.00 -0.5340 1.9420 -1.5 -999.0000 -999 -1.0 14.7570 -999.0000 -0.008 12.7870 12.8730 13.1 0.0 12.9600 0.0000 5.0000 4.0000
2022-05-21 09:15:00 2022-05-21 02:15:00 0.1987 42.55 -999.00 -0.5760 1.9090 -1.7 -999.0000 -999 -1.1 14.7490 -999.0000 -0.007 12.7870 12.8730 13.1 0.0 12.9600 0.0000 5.0000 3.0000
2022-05-21 09:30:00 2022-05-21 02:30:00 0.2034 42.55 -999.00 -0.6200 1.8790 -1.7 -999.0000 -999 -1.1 14.7370 -999.0000 -0.010 12.7850 12.8730 13.1 0.0 12.9600 0.0000 5.0000 8.0000
2022-05-21 09:45:00 2022-05-21 02:45:00 0.1987 42.55 -999.00 -0.6810 1.8500 -1.9 -999.0000 -999 -1.2 14.7260 -999.0000 -0.001 12.7850 12.8710 13.1 0.0 12.9500 0.0000 5.0000 6.0000
2022-05-21 10:00:00 2022-05-21 03:00:00 0.2010 42.55 -999.00 -0.7300 1.8230 -1.9 -999.0000 -999 -1.2 14.7040 -999.0000 -0.019 12.7840 12.8710 13.1 0.0 12.9500 0.0000 5.0000 7.0000
2022-05-21 10:15:00 2022-05-21 03:15:00 0.1987 42.55 -999.00 -0.7370 1.7960 -2.1 -999.0000 -999 -1.3 14.6890 -999.0000 -0.022 12.7840 12.8700 13.1 0.0 12.9400 0.0000 4.0000 4.0000
2022-05-21 10:30:00 2022-05-21 03:30:00 0.2034 42.55 -999.00 -0.8180 1.7710 -1.9 -999.0000 -999 -1.3 14.6760 -999.0000 -0.021 12.7830 12.8710 13.1 0.0 12.9300 0.0000 2.0000 5.0000
2022-05-21 10:45:00 2022-05-21 03:45:00 0.2057 42.55 -999.00 -0.9140 1.7470 -2.1 -999.0000 -999 -1.4 14.6560 -999.0000 -0.019 12.7840 12.8730 13.1 0.0 12.9300 0.0000 3.0000 7.0000
2022-05-21 11:00:00 2022-05-21 04:00:00 0.2034 42.55 -999.00 -0.9560 1.7240 -2.2 -999.0000 -999 -1.5 14.6440 -999.0000 -0.016 12.7840 12.8720 13.1 0.0 12.9100 0.0000 3.0000 2.0000
2022-05-21 11:15:00 2022-05-21 04:15:00 0.2080 42.55 -999.00 -0.9560 1.7040 -2.2 -999.0000 -999 -1.5 14.6260 -999.0000 -0.021 12.7820 12.8720 13.1 0.0 12.9100 0.0000 7.0000 8.0000
2022-05-21 11:30:00 2022-05-21 04:30:00 0.2080 42.55 -999.00 -0.9490 1.6860 -2.2 -999.0000 -999 -1.5 14.6200 -999.0000 -0.022 12.7820 12.8720 13.1 0.1 12.9100 0.0000 2.0000 3.0000
2022-05-21 11:45:00 2022-05-21 04:45:00 0.2057 42.55 -999.00 -1.0000 1.6680 -2.6 -999.0000 -999 -1.6 14.6030 -999.0000 -0.023 12.7810 12.8700 13.0 0.3 12.9100 0.0000 5.0000 1.0000
2022-05-21 12:00:00 2022-05-21 05:00:00 0.2034 42.55 -999.00 -1.0260 1.6520 -2.6 -999.0000 -999 -1.6 14.5960 -999.0000 -0.022 12.7820 12.8700 13.1 3.5 12.9000 0.0000 2.0000 7.0000
2022-05-21 12:15:00 2022-05-21 05:15:00 0.2010 42.55 -999.00 -1.0810 1.6360 -2.4 -999.0000 -999 -1.6 14.5870 -999.0000 -0.024 12.7810 12.8680 13.0 10.9 12.9100 0.0000 6.0000 6.0000
2022-05-21 12:30:00 2022-05-21 05:30:00 0.2034 42.55 -999.00 -1.0400 1.6210 -2.6 -999.0000 -999 -1.6 14.5790 -999.0000 -0.019 12.7810 12.8690 13.1 13.0 12.9000 5.9800 3.0000 5.0000
2022-05-21 12:45:00 2022-05-21 05:45:00 0.2010 42.55 -999.00 -1.0240 1.6050 -2.4 -999.0000 -999 -1.6 14.5720 -999.0000 -0.017 12.7810 12.8680 13.1 13.0 12.9000 10.9300 3.0000 6.0000
2022-05-21 13:00:00 2022-05-21 06:00:00 0.2010 42.55 -999.00 -1.0720 1.5940 -2.6 -999.0000 -999 -1.6 14.5670 -999.0000 0.001 12.7820 12.8690 13.1 13.1 12.8900 11.8700 -2.0000 6.0000
2022-05-21 13:15:00 2022-05-21 06:15:00 0.2010 42.55 -999.00 -1.0650 1.5830 -2.6 -999.0000 -999 -1.5 14.5580 -999.0000 -0.006 12.7840 12.8710 13.0 13.1 12.8900 12.1400 4.0000 8.0000
2022-05-21 13:30:00 2022-05-21 06:30:00 0.2010 42.55 -999.00 -1.0590 1.5730 -2.4 -999.0000 -999 -1.6 14.5620 -999.0000 -0.006 12.7860 12.8730 13.1 13.1 12.8900 12.4000 3.0000 1.0000
2022-05-21 13:45:00 2022-05-21 06:45:00 0.1987 42.55 -999.00 -0.9870 1.5660 -2.6 -999.0000 -999 -1.5 14.5570 -999.0000 -0.008 12.7860 12.8720 13.1 13.1 12.9100 12.6400 3.0000 8.0000
2022-05-21 14:00:00 2022-05-21 07:00:00 0.2034 42.55 -999.00 -0.9440 1.5630 -2.6 -999.0000 -999 -1.4 14.5590 -999.0000 -0.004 12.7860 12.8740 13.1 13.1 12.9000 12.9200 7.0000 2.0000
2022-05-21 14:15:00 2022-05-21 07:15:00 0.1987 42.55 -999.00 -0.8220 1.5610 -2.4 -999.0000 -999 -1.3 14.5650 -999.0000 0.000 12.7880 12.8740 13.1 13.1 12.9000 12.9600 6.0000 8.0000
2022-05-21 14:30:00 2022-05-21 07:30:00 0.1941 42.55 -999.00 -0.6700 1.5630 -2.4 -999.0000 -999 -1.1 14.5670 -999.0000 0.002 12.7890 12.8730 13.1 13.1 12.9300 12.9600 2.0000 8.0000
2022-05-21 14:45:00 2022-05-21 07:45:00 0.1918 42.55 -999.00 -0.2970 1.5930 -2.2 -999.0000 -999 -0.7 14.5790 -999.0000 0.004 12.7900 12.8730 13.1 13.2 12.9400 13.0000 2.0000 6.0000
2022-05-21 15:00:00 2022-05-21 08:00:00 0.1918 42.55 -999.00 0.4140 1.6860 -2.1 -999.0000 -999 -0.1 14.6060 -999.0000 -0.001 12.7920 12.8750 13.2 13.2 12.9600 13.0500 5.0000 5.0000
2022-05-21 15:15:00 2022-05-21 08:15:00 0.1826 42.55 -999.00 1.2760 1.8150 -1.7 -999.0000 -999 0.6 14.6560 -999.0000 0.007 12.7950 12.8740 13.2 13.3 13.0000 13.0900 3.0000 6.0000
2022-05-21 15:30:00 2022-05-21 08:30:00 0.1756 42.55 -999.00 1.8400 1.9660 -1.2 -999.0000 -999 1.1 14.7340 -999.0000 0.007 12.7960 12.8720 13.3 13.4 13.0500 13.1700 3.0000 8.0000
2022-05-21 15:45:00 2022-05-21 08:45:00 0.1733 42.55 -999.00 2.5380 2.1370 -0.7 -999.0000 -999 1.6 14.8140 -999.0000 0.014 12.7980 12.8730 13.4 13.4 13.1400 13.2400 3.0000 3.0000
2022-05-21 16:00:00 2022-05-21 09:00:00 0.1664 42.55 -999.00 3.2170 2.3280 -0.1 -999.0000 -999 2.0 14.9040 -999.0000 0.019 12.8000 12.8720 13.5 13.5 13.2500 13.3700 3.0000 4.0000
2022-05-21 16:15:00 2022-05-21 09:15:00 0.1618 42.55 -999.00 4.0470 2.5360 0.7 -999.0000 -999 2.9 14.9920 -999.0000 0.012 12.8020 12.8720 13.6 13.7 13.9500 17.9100 3.0000 6.0000
2022-05-21 16:30:00 2022-05-21 09:30:00 0.1571 42.55 -999.00 5.8840 2.7660 1.9 -999.0000 -999 4.8 15.0990 -999.0000 0.012 12.8060 12.8740 14.0 21.5 13.9700 19.9500 2.0000 6.0000
2022-05-21 16:45:00 2022-05-21 09:45:00 0.1479 42.55 -999.00 7.3890 3.0170 4.4 -999.0000 -999 6.1 15.2190 -999.0000 0.014 12.8080 12.8720 13.9 20.9 13.9800 18.9700 4.0000 5.0000
2022-05-21 17:00:00 2022-05-21 10:00:00 0.1502 42.55 -999.00 6.9500 3.2330 6.5 -999.0000 -999 7.0 15.3300 -999.0000 0.003 12.8060 12.8710 14.0 21.5 13.9800 19.6600 5.0000 8.0000
2022-05-21 17:15:00 2022-05-21 10:15:00 0.1479 42.55 -999.00 6.5650 3.3120 7.7 -999.0000 -999 7.3 15.3820 -999.0000 0.023 12.8050 12.8690 14.0 22.0 13.9700 20.3900 3.0000 4.0000
2022-05-21 17:30:00 2022-05-21 10:30:00 0.1479 42.55 -999.00 6.8420 3.2750 9.8 -999.0000 -999 9.5 15.3850 -999.0000 0.022 12.8060 12.8700 13.9 20.4 13.9800 19.0200 3.0000 7.0000
2022-05-21 17:45:00 2022-05-21 10:45:00 0.1386 42.55 -999.00 7.7700 3.2410 11.7 -999.0000 -999 12.3 15.3760 -999.0000 0.022 12.8070 12.8670 14.2 14.3 13.9800 17.6300 3.0000 5.0000
2022-05-21 18:00:00 2022-05-21 11:00:00 0.1386 42.55 -999.00 7.5380 3.2510 13.1 -999.0000 -999 9.7 15.3790 -999.0000 0.008 12.8080 12.8680 14.0 14.1 13.9800 18.3800 2.0000 7.0000
2022-05-21 18:15:00 2022-05-21 11:15:00 0.1410 42.55 -999.00 6.4420 3.2380 13.1 -999.0000 -999 8.9 15.3700 -999.0000 -0.005 12.8060 12.8670 13.9 22.0 13.9700 21.1300 3.0000 7.0000
2022-05-21 18:30:00 2022-05-21 11:30:00 0.1456 42.55 -999.00 6.6930 3.2730 12.7 -999.0000 -999 11.5 15.3930 -999.0000 0.017 12.8070 12.8700 13.9 21.4 13.9700 21.1800 4.0000 5.0000
2022-05-21 18:45:00 2022-05-21 11:45:00 0.1433 42.55 -999.00 7.8610 3.4280 13.2 -999.0000 -999 15.9 15.4530 -999.0000 0.021 12.8070 12.8690 13.9 21.1 13.9800 20.6100 4.0000 8.0000
2022-05-21 19:00:00 2022-05-21 12:00:00 0.1363 42.55 -999.00 9.2070 3.6470 14.8 -999.0000 -999 14.7 15.5530 -999.0000 0.021 12.8100 12.8690 14.0 20.3 13.9900 17.9500 3.0000 6.0000
2022-05-21 19:15:00 2022-05-21 12:15:00 0.1433 42.55 -999.00 8.0090 3.8120 15.3 -999.0000 -999 11.5 15.6420 -999.0000 0.018 12.8090 12.8710 13.8 21.1 13.9800 19.0700 3.0000 9.0000
2022-05-21 19:30:00 2022-05-21 12:30:00 0.1410 42.55 -999.00 8.9850 3.9060 15.0 -999.0000 -999 14.8 15.6970 -999.0000 0.021 12.8100 12.8710 13.8 20.2 13.9700 19.0400 3.0000 8.0000
2022-05-21 19:45:00 2022-05-21 12:45:00 0.1433 42.55 -999.00 8.6760 4.0950 15.0 -999.0000 -999 11.9 15.7810 -999.0000 0.014 12.8100 12.8720 13.8 20.5 13.9700 17.6000 2.0000 7.0000
2022-05-21 20:00:00 2022-05-21 13:00:00 0.1502 42.55 -999.00 7.5160 4.2990 14.5 -999.0000 -999 10.2 15.8760 -999.0000 0.010 12.8090 12.8740 14.3 14.4 13.9900 19.0000 3.0000 8.0000
2022-05-21 20:15:00 2022-05-21 13:15:00 0.1479 42.55 -999.00 7.3000 4.4160 13.8 -999.0000 -999 10.4 15.9460 -999.0000 0.015 12.8070 12.8710 13.8 21.7 13.9700 21.0000 5.0000 6.0000
2022-05-21 20:30:00 2022-05-21 13:30:00 0.1433 42.55 -999.00 8.0200 4.5190 13.6 -999.0000 -999 11.9 16.0050 -999.0000 0.016 12.8070 12.8690 13.8 21.5 13.9700 19.3900 4.0000 7.0000
2022-05-21 20:45:00 2022-05-21 13:45:00 0.1433 42.55 -999.00 9.1500 4.6090 13.8 -999.0000 -999 16.7 16.0540 -999.0000 0.033 12.8080 12.8700 13.8 20.3 13.9800 18.9600 3.0000 3.0000
2022-05-21 21:00:00 2022-05-21 14:00:00 0.1479 42.55 -999.00 8.2900 4.6890 14.3 -999.0000 -999 12.9 16.1010 -999.0000 0.041 12.8070 12.8710 14.0 14.2 13.9700 18.8300 1.0000 7.0000
2022-05-21 21:15:00 2022-05-21 14:15:00 0.1479 42.55 -999.00 7.6440 4.7700 14.1 -999.0000 -999 10.7 16.1410 -999.0000 0.032 12.8050 12.8690 13.8 21.0 13.9800 18.7100 3.0000 8.0000
2022-05-21 21:30:00 2022-05-21 14:30:00 0.1525 42.55 -999.00 7.3520 4.9000 13.4 -999.0000 -999 9.2 16.2050 -999.0000 0.023 12.8060 12.8720 13.8 20.9 13.9800 17.6300 4.0000 7.0000
2022-05-21 21:45:00 2022-05-21 14:45:00 0.1502 42.55 -999.00 6.7390 5.0310 12.5 -999.0000 -999 8.2 16.2640 -999.0000 0.030 12.8090 12.8740 13.8 21.2 13.9700 17.8000 5.0000 5.0000
2022-05-21 22:00:00 2022-05-21 15:00:00 0.1594 42.60 -999.00 5.5820 5.0480 11.2 -999.0000 -999 7.2 16.2860 -999.0000 0.008 12.8130 12.8820 13.8 21.3 13.9800 18.2700 3.0000 11.0000
2022-05-21 22:15:00 2022-05-21 15:15:00 0.1664 42.63 -999.00 4.4810 4.9930 10.1 -999.0000 -999 5.6 16.2780 -999.0000 0.017 12.8130 12.8850 13.9 20.7 13.9700 17.0900 7.0000 11.0000
2022-05-21 22:30:00 2022-05-21 15:30:00 0.1710 42.67 -999.00 3.4280 4.8630 8.5 -999.0000 -999 4.2 16.2160 -999.0000 0.018 12.8110 12.8850 13.9 13.9 13.9800 16.4600 4.0000 11.0000
2022-05-21 22:45:00 2022-05-21 15:45:00 0.1733 42.68 -999.00 3.4780 4.7290 7.3 -999.0000 -999 4.2 16.1560 -999.0000 0.015 12.8130 12.8880 13.9 20.6 13.9900 16.3100 4.0000 8.0000
2022-05-21 23:00:00 2022-05-21 16:00:00 0.1779 42.69 -999.00 3.5380 4.6290 6.5 -999.0000 -999 4.3 16.0880 -999.0000 0.016 12.8160 12.8930 13.9 14.0 13.9800 14.7000 4.0000 8.0000
2022-05-21 23:15:00 2022-05-21 16:15:00 0.1779 42.71 -999.00 3.6040 4.5010 5.9 -999.0000 -999 4.6 16.0250 -999.0000 0.017 12.8170 12.8940 14.3 14.3 13.9700 16.5900 4.0000 8.0000
2022-05-21 23:30:00 2022-05-21 16:30:00 0.1733 42.72 -999.00 3.8460 4.3540 5.8 -999.0000 -999 4.9 15.9440 -999.0000 0.023 12.8190 12.8940 13.8 21.0 13.9900 17.5600 6.0000 8.0000
2022-05-21 23:45:00 2022-05-21 16:45:00 0.1779 42.73 -999.00 4.0000 4.2190 5.4 -999.0000 -999 5.1 15.8780 -999.0000 0.017 12.8200 12.8970 13.8 20.8 13.9800 17.6800 6.0000 7.0000
2022-05-22 00:00:00 2022-05-21 17:00:00 0.1733 42.73 -999.00 4.2050 4.1070 5.2 -999.0000 -999 5.3 15.8180 -999.0000 0.016 12.8220 12.8970 13.9 20.8 13.9700 17.5600 4.0000 11.0000
2022-05-22 00:15:00 2022-05-21 17:15:00 0.1756 42.74 -999.00 4.0710 4.0140 5.2 -999.0000 -999 5.2 15.7670 -999.0000 0.018 12.8240 12.9000 13.9 20.8 13.9700 17.3000 4.0000 7.0000
2022-05-22 00:30:00 2022-05-21 17:30:00 0.1802 42.74 -999.00 3.9340 3.9300 5.2 -999.0000 -999 5.1 15.7260 -999.0000 0.014 12.8230 12.9010 14.0 20.9 13.9700 17.3900 2.0000 12.0000
2022-05-22 00:45:00 2022-05-21 17:45:00 0.1802 42.74 -999.00 3.7800 3.8540 5.1 -999.0000 -999 4.8 15.6750 -999.0000 0.015 12.8220 12.9000 14.4 21.0 13.9800 17.2000 2.0000 7.0000
2022-05-22 01:00:00 2022-05-21 18:00:00 0.1779 42.74 -999.00 3.7020 3.7830 4.9 -999.0000 -999 4.6 15.6290 -999.0000 0.014 12.8210 12.8980 14.0 20.8 13.9900 16.7500 1.0000 5.0000
2022-05-22 01:15:00 2022-05-21 18:15:00 0.1941 42.74 -999.00 3.6300 3.7180 4.9 -999.0000 -999 4.6 15.5990 -999.0000 0.015 12.8200 12.9040 14.2 20.6 13.9800 15.8200 4.0000 6.0000
2022-05-22 01:30:00 2022-05-21 18:30:00 0.1895 42.74 -999.00 3.5110 3.6590 4.9 -999.0000 -999 4.2 15.5710 -999.0000 0.013 12.8160 12.8980 13.8 20.3 13.9700 14.2000 5.0000 0.0000
2022-05-22 01:45:00 2022-05-21 18:45:00 0.1895 42.74 -999.00 3.5190 3.5970 4.7 -999.0000 -999 4.1 15.5360 -999.0000 0.017 12.8150 12.8970 14.0 14.1 13.9800 14.2100 3.0000 7.0000
2022-05-22 02:00:00 2022-05-21 19:00:00 0.1802 42.74 -999.00 3.5050 3.5400 4.4 -999.0000 -999 3.9 15.4970 -999.0000 0.014 12.8160 12.8940 14.0 14.0 13.9800 14.1500 2.0000 7.0000
2022-05-22 02:15:00 2022-05-21 19:15:00 0.1872 42.74 -999.00 3.3710 3.4960 4.4 -999.0000 -999 3.3 15.4770 -999.0000 0.011 12.8170 12.8980 13.8 13.8 13.5800 13.6300 4.0000 3.0000
2022-05-22 02:30:00 2022-05-21 19:30:00 0.1872 42.74 -999.00 3.1070 3.4400 4.0 -999.0000 -999 2.7 15.4430 -999.0000 0.017 12.8180 12.8990 13.8 13.8 13.3200 12.7400 5.0000 12.0000
2022-05-22 02:45:00 2022-05-21 19:45:00 0.1849 42.74 -999.00 2.8670 3.3640 3.7 -999.0000 -999 2.3 15.4100 -999.0000 0.015 12.8190 12.8990 13.7 13.7 13.2300 12.3000 6.0000 8.0000
2022-05-22 03:00:00 2022-05-21 20:00:00 0.1895 42.74 -999.00 2.5770 3.2720 3.2 -999.0000 -999 2.0 15.3610 -999.0000 0.013 12.8210 12.9030 13.7 13.7 13.1900 12.0900 7.0000 9.0000
2022-05-22 03:15:00 2022-05-21 20:15:00 0.1895 42.74 -999.00 2.4200 3.1760 2.8 -999.0000 -999 1.8 15.3120 -999.0000 0.016 12.8210 12.9030 13.6 13.6 13.1600 11.4600 5.0000 8.0000
2022-05-22 03:30:00 2022-05-21 20:30:00 0.1918 42.74 -999.00 2.1890 3.0830 2.5 -999.0000 -999 1.6 15.2640 -999.0000 0.017 12.8210 12.9040 13.6 13.6 13.1500 8.6900 5.0000 6.0000
2022-05-22 03:45:00 2022-05-21 20:45:00 0.1941 42.74 -999.00 2.0160 2.9950 2.1 -999.0000 -999 1.4 15.2070 -999.0000 0.018 12.8200 12.9040 13.5 12.9 13.1300 0.0000 2.0000 9.0000
2022-05-22 04:00:00 2022-05-21 21:00:00 0.1895 42.74 -999.00 1.7940 2.9060 1.8 -999.0000 -999 1.2 15.1640 -999.0000 0.018 12.8210 12.9030 13.5 7.0 13.1300 0.0000 7.0000 7.0000
2022-05-22 04:15:00 2022-05-21 21:15:00 0.1941 42.74 -999.00 1.5940 2.8160 1.6 -999.0000 -999 1.0 15.1170 -999.0000 0.016 12.8210 12.9050 13.4 0.7 13.1100 0.0000 7.0000 6.0000
2022-05-22 04:30:00 2022-05-21 21:30:00 0.1941 42.74 -999.00 1.3850 2.7290 1.4 -999.0000 -999 0.8 15.0760 -999.0000 0.017 12.8220 12.9060 13.4 0.1 13.1000 0.0000 3.0000 8.0000
2022-05-22 04:45:00 2022-05-21 21:45:00 0.1987 42.74 -999.00 1.2020 2.6490 1.1 -999.0000 -999 0.7 15.0380 -999.0000 0.018 12.8220 12.9080 13.4 0.1 13.0800 0.0000 6.0000 6.0000
2022-05-22 05:00:00 2022-05-21 22:00:00 0.1987 42.74 -999.00 1.0120 2.5760 0.7 -999.0000 -999 0.5 14.9980 -999.0000 0.020 12.8220 12.9080 13.4 0.0 13.0600 0.0000 4.0000 9.0000
2022-05-22 05:15:00 2022-05-21 22:15:00 0.2010 42.74 -999.00 0.8450 2.5070 0.6 -999.0000 -999 0.4 14.9530 -999.0000 0.022 12.8210 12.9080 13.3 0.0 13.0600 0.0000 8.0000 6.0000
2022-05-22 05:30:00 2022-05-21 22:30:00 0.2010 42.74 -999.00 0.7390 2.4420 0.4 -999.0000 -999 0.3 14.9070 -999.0000 0.021 12.8220 12.9090 13.3 0.0 13.0400 0.0000 2.0000 2.0000
2022-05-22 05:45:00 2022-05-21 22:45:00 0.2034 42.74 -999.00 0.6090 2.3830 0.0 -999.0000 -999 0.1 14.8650 -999.0000 0.021 12.8240 12.9120 13.3 0.0 13.0300 0.0000 5.0000 5.0000
2022-05-22 06:00:00 2022-05-21 23:00:00 0.2034 42.74 -999.00 0.4790 2.3290 -0.1 -999.0000 -999 0.0 14.8270 -999.0000 0.019 12.8240 12.9120 13.3 0.0 13.0300 0.0000 6.0000 7.0000
2022-05-22 06:15:00 2022-05-21 23:15:00 0.2010 42.74 -999.00 0.4090 2.2780 -0.3 -999.0000 -999 -0.1 14.8040 -999.0000 0.019 12.8220 12.9090 13.2 0.0 13.0100 0.0000 2.0000 7.0000
2022-05-22 06:30:00 2022-05-21 23:30:00 0.1964 42.74 -999.00 0.3540 2.2310 -0.5 -999.0000 -999 -0.1 14.7670 -999.0000 0.021 12.8210 12.9060 13.2 0.0 13.0100 0.0000 4.0000 7.0000
2022-05-22 06:45:00 2022-05-21 23:45:00 0.2010 42.74 -999.00 0.2760 2.1880 -0.5 -999.0000 -999 -0.2 14.7380 -999.0000 0.019 12.8200 12.9070 13.2 0.0 13.0000 0.0000 4.0000 6.0000
2022-05-22 07:00:00 2022-05-22 00:00:00 0.1964 42.74 -999.00 0.2120 2.1480 -0.8 -999.0000 -999 -0.3 14.7040 -999.0000 0.019 12.8210 12.9060 13.2 0.0 12.9900 0.0000 4.0000 8.0000
2022-05-22 07:15:00 2022-05-22 00:15:00 0.1987 42.74 -999.00 0.2060 2.1110 -0.7 -999.0000 -999 -0.3 14.6790 -999.0000 0.018 12.8210 12.9070 13.2 0.0 13.0000 0.0000 7.0000 7.0000
2022-05-22 07:30:00 2022-05-22 00:30:00 0.1987 42.74 -999.00 0.1730 2.0770 -0.8 -999.0000 -999 -0.4 14.6430 -999.0000 0.018 12.8210 12.9070 13.2 0.0 12.9800 0.0000 0.0000 2.0000
2022-05-22 07:45:00 2022-05-22 00:45:00 0.1918 42.74 -999.00 0.0980 2.0470 -0.8 -999.0000 -999 -0.4 14.6160 -999.0000 0.017 12.8210 12.9040 13.2 0.0 12.9800 0.0000 7.0000 6.0000
2022-05-22 08:00:00 2022-05-22 01:00:00 0.1941 42.74 -999.00 0.0290 2.0190 -1.2 -999.0000 -999 -0.5 14.5940 -999.0000 0.018 12.8220 12.9060 13.1 0.0 12.9600 0.0000 4.0000 10.0000
2022-05-22 08:15:00 2022-05-22 01:15:00 0.1918 42.74 -999.00 -0.0020 1.9940 -1.2 -999.0000 -999 -0.5 14.5710 -999.0000 0.018 12.8210 12.9040 13.1 0.0 12.9600 0.0000 7.0000 7.0000
2022-05-22 08:30:00 2022-05-22 01:30:00 0.1918 42.74 -999.00 -0.0500 1.9700 -1.0 -999.0000 -999 -0.6 14.5510 -999.0000 0.017 12.8210 12.9040 13.1 0.0 12.9400 0.0000 4.0000 6.0000
2022-05-22 08:45:00 2022-05-22 01:45:00 0.1941 42.74 -999.00 -0.0590 1.9480 -1.0 -999.0000 -999 -0.6 14.5410 -999.0000 0.017 12.8210 12.9050 13.1 0.0 12.9600 0.0000 5.0000 9.0000
2022-05-22 09:00:00 2022-05-22 02:00:00 0.1964 42.74 -999.00 -0.1400 1.9270 -1.2 -999.0000 -999 -0.6 14.5290 -999.0000 0.019 12.8200 12.9050 13.1 0.0 12.9600 0.0000 1.0000 9.0000
2022-05-22 09:15:00 2022-05-22 02:15:00 0.1918 42.74 -999.00 -0.0980 1.9060 -1.2 -999.0000 -999 -0.6 14.5120 -999.0000 0.019 12.8210 12.9040 13.1 0.0 12.9400 0.0000 7.0000 8.0000
2022-05-22 09:30:00 2022-05-22 02:30:00 0.1987 42.74 -999.00 -0.1120 1.8860 -1.2 -999.0000 -999 -0.6 14.4920 -999.0000 0.019 12.8200 12.9060 13.1 0.0 12.9400 0.0000 5.0000 9.0000
2022-05-22 09:45:00 2022-05-22 02:45:00 0.1918 42.74 -999.00 -0.1330 1.8660 -1.4 -999.0000 -999 -0.6 14.4860 -999.0000 0.019 12.8190 12.9020 13.1 0.0 12.9300 0.0000 3.0000 4.0000
2022-05-22 10:00:00 2022-05-22 03:00:00 0.1941 42.74 -999.00 -0.1540 1.8480 -1.4 -999.0000 -999 -0.6 14.4730 -999.0000 0.020 12.8180 12.9020 13.1 0.0 12.9300 0.0000 2.0000 8.0000
2022-05-22 10:15:00 2022-05-22 03:15:00 0.1941 42.74 -999.00 -0.2040 1.8290 -1.4 -999.0000 -999 -0.7 14.4620 -999.0000 0.020 12.8180 12.9020 13.1 0.0 12.9300 0.0000 4.0000 3.0000
2022-05-22 10:30:00 2022-05-22 03:30:00 0.1918 42.74 -999.00 -0.2640 1.8110 -1.4 -999.0000 -999 -0.8 14.4590 -999.0000 0.021 12.8200 12.9030 13.1 0.0 12.9100 0.0000 0.0000 8.0000
2022-05-22 10:45:00 2022-05-22 03:45:00 0.1918 42.74 -999.00 -0.3060 1.7950 -1.5 -999.0000 -999 -0.8 14.4570 -999.0000 0.021 12.8180 12.9010 13.1 0.0 12.9000 0.0000 5.0000 4.0000
2022-05-22 11:00:00 2022-05-22 04:00:00 0.1895 42.74 -999.00 -0.3370 1.7790 -1.7 -999.0000 -999 -0.8 14.4310 -999.0000 0.021 12.8180 12.9000 13.1 0.0 12.8900 0.0000 3.0000 9.0000
2022-05-22 11:15:00 2022-05-22 04:15:00 0.1918 42.74 -999.00 -0.3170 1.7630 -1.5 -999.0000 -999 -0.8 14.3890 -999.0000 0.019 12.8170 12.9000 13.0 0.0 12.9100 0.0000 5.0000 7.0000
2022-05-22 11:30:00 2022-05-22 04:30:00 0.1918 42.74 -999.00 -0.3090 1.7460 -1.5 -999.0000 -999 -0.8 14.3470 -999.0000 0.019 12.8170 12.9000 13.1 0.1 12.9100 0.0000 5.0000 8.0000
2022-05-22 11:45:00 2022-05-22 04:45:00 0.1872 42.74 -999.00 -0.3390 1.7300 -1.7 -999.0000 -999 -0.9 14.3370 -999.0000 0.019 12.8180 12.8990 13.1 0.4 12.9000 0.0000 5.0000 10.0000
2022-05-22 12:00:00 2022-05-22 05:00:00 0.1872 42.74 -999.00 -0.3090 1.7140 -1.7 -999.0000 -999 -0.9 14.3210 -999.0000 0.019 12.8190 12.9000 13.1 5.0 12.9100 0.0000 5.0000 0.0000
2022-05-22 12:15:00 2022-05-22 05:15:00 0.1895 42.74 -999.00 -0.3550 1.7010 -1.7 -999.0000 -999 -0.7 14.3150 -999.0000 0.018 12.8190 12.9010 13.0 12.1 12.8800 0.0000 4.0000 8.0000
2022-05-22 12:30:00 2022-05-22 05:30:00 0.1849 42.74 -999.00 -0.4080 1.6880 -1.7 -999.0000 -999 -0.2 14.3020 -999.0000 0.019 12.8200 12.9000 13.0 13.0 12.8900 6.9700 2.0000 5.0000
2022-05-22 12:45:00 2022-05-22 05:45:00 0.1872 42.74 -999.00 -0.4610 1.6750 -1.7 -999.0000 -999 -0.2 14.2980 -999.0000 0.019 12.8200 12.9010 13.1 13.0 12.8900 10.8400 2.0000 2.0000
2022-05-22 13:00:00 2022-05-22 06:00:00 0.1895 42.74 -999.00 -0.4530 1.6620 -1.9 -999.0000 -999 -0.3 14.2880 -999.0000 0.019 12.8200 12.9020 13.1 13.1 12.9000 11.8300 3.0000 4.0000
2022-05-22 13:15:00 2022-05-22 06:15:00 0.1849 42.74 -999.00 -0.4100 1.6520 -1.7 -999.0000 -999 -0.5 14.2840 -999.0000 0.019 12.8210 12.9010 13.0 13.1 12.9000 11.8300 3.0000 4.0000
2022-05-22 13:30:00 2022-05-22 06:30:00 -999.0000 42.74 -999.00 -0.3790 -999.0000 -1.7 -999.0000 -999 -0.6 -999.0000 -999.0000 0.019 12.8220 -999.0000 13.1 13.1 12.9000 12.2700 0.0000 1.0000
2022-05-22 13:45:00 2022-05-22 06:45:00 -999.0000 42.74 -999.00 -0.3600 -999.0000 -1.7 -999.0000 -999 -0.6 -999.0000 -999.0000 0.018 12.8240 -999.0000 13.1 13.1 12.9000 12.2700 1.0000 1.0000
2022-05-22 14:00:00 2022-05-22 07:00:00 -999.0000 42.74 -999.00 -0.3250 -999.0000 -1.7 -999.0000 -999 -0.7 -999.0000 -999.0000 0.019 12.8250 -999.0000 13.1 13.1 12.8900 12.4500 1.0000 3.0000
2022-05-22 14:15:00 2022-05-22 07:15:00 -999.0000 42.74 -999.00 -0.2660 -999.0000 -1.7 -999.0000 -999 -0.6 -999.0000 -999.0000 0.020 12.8240 -999.0000 13.1 13.1 -999.0000 -999.0000 2.0000 -999.0000
2022-05-22 14:30:00 2022-05-22 07:30:00 -999.0000 42.74 -999.00 -0.1250 -999.0000 -1.5 -999.0000 -999 -0.5 -999.0000 -999.0000 0.020 12.8250 -999.0000 13.1 13.1 -999.0000 -999.0000 1.0000 -999.0000
2022-05-22 14:45:00 2022-05-22 07:45:00 -999.0000 42.74 -999.00 0.0730 -999.0000 -1.5 -999.0000 -999 -0.3 -999.0000 -999.0000 0.020 12.8260 -999.0000 13.1 13.1 -999.0000 -999.0000 1.0000 -999.0000
2022-05-22 15:00:00 2022-05-22 08:00:00 -999.0000 42.74 -999.00 0.4860 -999.0000 -1.4 -999.0000 -999 -0.1 -999.0000 -999.0000 0.020 12.8280 -999.0000 13.2 13.2 -999.0000 -999.0000 1.0000 -999.0000
2022-05-22 15:15:00 2022-05-22 08:15:00 0.1664 42.74 -999.00 1.1440 1.9030 -1.2 -999.0000 -999 0.0 14.3680 -999.0000 0.017 12.8300 12.9020 13.1 13.2 -999.0000 -999.0000 0.0000 -999.0000
2022-05-22 15:30:00 2022-05-22 08:30:00 -999.0000 42.74 -999.00 1.6640 -999.0000 -1.0 -999.0000 -999 0.1 -999.0000 -999.0000 0.014 12.8300 -999.0000 13.2 13.2 -999.0000 -999.0000 2.0000 -999.0000
2022-05-22 15:45:00 2022-05-22 08:45:00 -999.0000 42.74 -999.00 2.1170 -999.0000 -0.7 -999.0000 -999 0.2 -999.0000 -999.0000 0.012 12.8310 -999.0000 13.2 13.3 -999.0000 -999.0000 2.0000 -999.0000
2022-05-22 16:00:00 2022-05-22 09:00:00 -999.0000 42.74 -999.00 2.6810 -999.0000 -0.3 -999.0000 -999 0.6 -999.0000 -999.0000 0.011 12.8320 -999.0000 13.3 13.3 -999.0000 -999.0000 2.0000 -999.0000
2022-05-22 16:15:00 2022-05-22 09:15:00 -999.0000 42.74 -999.00 3.1910 -999.0000 0.4 -999.0000 -999 1.5 -999.0000 -999.0000 0.015 12.8320 -999.0000 13.3 13.4 -999.0000 -999.0000 0.0000 -999.0000
2022-05-22 16:30:00 2022-05-22 09:30:00 -999.0000 42.74 -999.00 3.8480 -999.0000 1.2 -999.0000 -999 2.7 -999.0000 -999.0000 0.016 12.8340 -999.0000 13.5 13.5 -999.0000 -999.0000 0.0000 -999.0000
2022-05-22 16:45:00 2022-05-22 09:45:00 -999.0000 42.74 -999.00 4.4360 -999.0000 3.2 -999.0000 -999 3.5 -999.0000 -999.0000 0.018 12.8350 -999.0000 14.4 22.2 -999.0000 -999.0000 2.0000 -999.0000
2022-05-22 17:00:00 2022-05-22 10:00:00 -999.0000 42.74 -999.00 4.9210 -999.0000 4.9 -999.0000 -999 4.9 -999.0000 -999.0000 0.022 12.8370 -999.0000 14.7 21.6 -999.0000 -999.0000 -2.0000 -999.0000
2022-05-22 17:15:00 2022-05-22 10:15:00 -999.0000 42.74 -999.00 5.9800 -999.0000 6.6 -999.0000 -999 5.8 -999.0000 -999.0000 0.019 12.8390 -999.0000 14.2 21.1 -999.0000 -999.0000 -2.0000 -999.0000
2022-05-22 17:30:00 2022-05-22 10:30:00 -999.0000 42.74 -999.00 6.9200 -999.0000 9.8 -999.0000 -999 11.7 -999.0000 -999.0000 0.014 12.8420 -999.0000 14.7 20.9 -999.0000 -999.0000 0.0000 -999.0000
2022-05-22 17:45:00 2022-05-22 10:45:00 -999.0000 42.74 -999.00 7.8580 -999.0000 13.2 -999.0000 -999 14.7 -999.0000 -999.0000 0.030 12.8440 -999.0000 14.0 20.8 -999.0000 -999.0000 0.0000 -999.0000
2022-05-22 18:00:00 2022-05-22 11:00:00 -999.0000 42.74 -999.00 9.3210 -999.0000 16.5 -999.0000 -999 16.0 -999.0000 -999.0000 0.010 12.8470 -999.0000 13.9 20.6 -999.0000 -999.0000 0.0000 -999.0000
2022-05-22 18:15:00 2022-05-22 11:15:00 -999.0000 42.74 -999.00 10.6810 -999.0000 19.7 -999.0000 -999 17.6 -999.0000 -999.0000 0.009 12.8470 -999.0000 13.9 20.5 -999.0000 -999.0000 0.0000 -999.0000
2022-05-22 18:30:00 2022-05-22 11:30:00 -999.0000 42.74 -999.00 11.2750 -999.0000 22.1 -999.0000 -999 19.5 -999.0000 -999.0000 0.009 12.8470 -999.0000 13.8 20.5 -999.0000 -999.0000 0.0000 -999.0000
2022-05-22 18:45:00 2022-05-22 11:45:00 -999.0000 42.74 -999.00 12.4360 -999.0000 24.0 -999.0000 -999 20.7 -999.0000 -999.0000 0.000 12.8480 -999.0000 13.8 20.4 -999.0000 -999.0000 0.0000 -999.0000
2022-05-22 19:00:00 2022-05-22 12:00:00 -999.0000 42.74 -999.00 12.8420 -999.0000 25.4 -999.0000 -999 22.4 -999.0000 -999.0000 0.020 12.8480 -999.0000 13.8 20.4 -999.0000 -999.0000 0.0000 -999.0000
2022-05-22 19:15:00 2022-05-22 12:15:00 -999.0000 42.74 -999.00 12.8510 -999.0000 25.9 -999.0000 -999 23.0 -999.0000 -999.0000 0.012 12.8490 -999.0000 13.7 20.3 -999.0000 -999.0000 0.0000 -999.0000
2022-05-22 19:30:00 2022-05-22 12:30:00 -999.0000 42.74 -999.00 13.5280 -999.0000 26.3 -999.0000 -999 22.1 -999.0000 -999.0000 0.026 12.8470 -999.0000 13.8 20.2 -999.0000 -999.0000 0.0000 -999.0000
2022-05-22 19:45:00 2022-05-22 12:45:00 -999.0000 42.74 -999.00 12.9340 -999.0000 26.1 -999.0000 -999 22.7 -999.0000 -999.0000 0.006 12.8460 -999.0000 13.6 14.7 -999.0000 -999.0000 0.0000 -999.0000
2022-05-22 20:00:00 2022-05-22 13:00:00 -999.0000 42.74 -999.00 13.1830 -999.0000 25.7 -999.0000 -999 22.2 -999.0000 -999.0000 0.034 12.8420 -999.0000 13.8 20.3 -999.0000 -999.0000 0.0000 -999.0000
2022-05-22 20:15:00 2022-05-22 13:15:00 -999.0000 42.74 -999.00 13.6340 -999.0000 25.4 -999.0000 -999 24.1 -999.0000 -999.0000 0.024 12.8410 -999.0000 13.7 20.4 -999.0000 -999.0000 0.0000 -999.0000
2022-05-22 20:30:00 2022-05-22 13:30:00 -999.0000 42.74 -999.00 13.8280 -999.0000 25.0 -999.0000 -999 25.1 -999.0000 -999.0000 0.011 12.8410 -999.0000 13.7 20.4 -999.0000 -999.0000 0.0000 -999.0000
2022-05-22 20:45:00 2022-05-22 13:45:00 -999.0000 42.74 -999.00 13.5540 -999.0000 24.9 -999.0000 -999 25.4 -999.0000 -999.0000 0.012 12.8420 -999.0000 13.7 20.4 -999.0000 -999.0000 0.0000 -999.0000
2022-05-22 21:00:00 2022-05-22 14:00:00 -999.0000 42.74 -999.00 13.2300 -999.0000 25.0 -999.0000 -999 25.1 -999.0000 -999.0000 0.035 12.8430 -999.0000 13.8 20.4 -999.0000 -999.0000 0.0000 -999.0000
2022-05-22 21:15:00 2022-05-22 14:15:00 -999.0000 42.74 -999.00 13.0500 -999.0000 25.2 -999.0000 -999 24.5 -999.0000 -999.0000 0.027 12.8430 -999.0000 13.7 20.7 -999.0000 -999.0000 0.0000 -999.0000
2022-05-22 21:30:00 2022-05-22 14:30:00 -999.0000 42.74 -999.00 12.5690 -999.0000 25.9 -999.0000 -999 23.3 -999.0000 -999.0000 0.008 12.8410 -999.0000 13.7 20.5 -999.0000 -999.0000 0.0000 -999.0000
2022-05-22 21:45:00 2022-05-22 14:45:00 -999.0000 42.74 -999.00 11.7150 -999.0000 25.6 -999.0000 -999 21.6 -999.0000 -999.0000 0.031 12.8400 -999.0000 13.7 20.7 -999.0000 -999.0000 0.0000 -999.0000
2022-05-22 22:00:00 2022-05-22 15:00:00 -999.0000 42.74 -999.00 11.9650 -999.0000 25.4 -999.0000 -999 20.4 -999.0000 -999.0000 0.036 12.8390 -999.0000 13.6 20.4 -999.0000 -999.0000 -999.0000 -999.0000
2022-05-22 22:15:00 2022-05-22 15:15:00 -999.0000 42.74 -999.00 12.1130 -999.0000 25.0 -999.0000 -999 20.6 -999.0000 -999.0000 0.012 12.8370 -999.0000 13.6 20.9 -999.0000 -999.0000 0.0000 -999.0000
2022-05-22 22:30:00 2022-05-22 15:30:00 -999.0000 42.74 -999.00 12.8980 -999.0000 24.7 -999.0000 -999 18.3 -999.0000 -999.0000 -0.007 12.8360 -999.0000 13.7 20.7 -999.0000 -999.0000 0.0000 -999.0000
2022-05-22 22:45:00 2022-05-22 15:45:00 -999.0000 42.74 -999.00 11.6820 -999.0000 23.7 -999.0000 -999 15.0 -999.0000 -999.0000 0.004 12.8340 -999.0000 13.6 20.7 -999.0000 -999.0000 0.0000 -999.0000
2022-05-22 23:00:00 2022-05-22 16:00:00 -999.0000 42.74 -999.00 10.6040 -999.0000 22.1 -999.0000 -999 12.7 -999.0000 -999.0000 0.015 12.8320 -999.0000 13.7 20.4 -999.0000 -999.0000 0.0000 -999.0000
2022-05-22 23:15:00 2022-05-22 16:15:00 -999.0000 42.74 -999.00 9.8310 -999.0000 20.4 -999.0000 -999 11.3 -999.0000 -999.0000 0.030 12.8320 -999.0000 13.7 20.7 -999.0000 -999.0000 0.0000 -999.0000
2022-05-22 23:30:00 2022-05-22 16:30:00 -999.0000 42.74 -999.00 9.3190 -999.0000 18.6 -999.0000 -999 10.2 -999.0000 -999.0000 0.012 12.8280 -999.0000 13.7 13.8 -999.0000 -999.0000 0.0000 -999.0000
2022-05-22 23:45:00 2022-05-22 16:45:00 -999.0000 42.74 -999.00 8.6640 -999.0000 17.1 -999.0000 -999 9.4 -999.0000 -999.0000 0.013 12.8280 -999.0000 13.8 13.9 -999.0000 -999.0000 0.0000 -999.0000
2022-05-23 00:00:00 2022-05-22 17:00:00 -999.0000 42.74 -999.00 8.2730 -999.0000 15.7 -999.0000 -999 8.8 -999.0000 -999.0000 0.015 12.8280 -999.0000 13.6 20.5 -999.0000 -999.0000 0.0000 -999.0000
2022-05-23 00:15:00 2022-05-22 17:15:00 -999.0000 42.74 -999.00 8.0980 -999.0000 14.5 -999.0000 -999 8.5 -999.0000 -999.0000 0.022 12.8270 -999.0000 13.8 13.8 -999.0000 -999.0000 0.0000 -999.0000
2022-05-23 00:30:00 2022-05-22 17:30:00 -999.0000 42.74 -999.00 7.9790 -999.0000 13.4 -999.0000 -999 8.1 -999.0000 -999.0000 0.007 12.8260 -999.0000 14.4 14.4 -999.0000 -999.0000 0.0000 -999.0000
2022-05-23 00:45:00 2022-05-22 17:45:00 -999.0000 42.74 -999.00 7.7340 -999.0000 12.4 -999.0000 -999 7.8 -999.0000 -999.0000 0.003 12.8250 -999.0000 13.7 20.0 -999.0000 -999.0000 0.0000 -999.0000
2022-05-23 01:00:00 2022-05-22 18:00:00 -999.0000 42.74 -999.00 7.7470 -999.0000 11.5 -999.0000 -999 7.7 -999.0000 -999.0000 0.055 12.8240 -999.0000 13.7 13.8 -999.0000 -999.0000 0.0000 -999.0000
2022-05-23 01:15:00 2022-05-22 18:15:00 -999.0000 42.74 -999.00 7.1640 -999.0000 10.8 -999.0000 -999 7.0 -999.0000 -999.0000 0.030 12.8250 -999.0000 13.7 13.7 -999.0000 -999.0000 0.0000 -999.0000
2022-05-23 01:30:00 2022-05-22 18:30:00 -999.0000 42.74 -999.00 6.7010 -999.0000 10.3 -999.0000 -999 6.7 -999.0000 -999.0000 0.013 12.8230 -999.0000 14.2 20.4 -999.0000 -999.0000 0.0000 -999.0000
2022-05-23 01:45:00 2022-05-22 18:45:00 -999.0000 42.74 -999.00 6.5280 -999.0000 9.4 -999.0000 -999 6.8 -999.0000 -999.0000 0.017 12.8220 -999.0000 13.6 20.5 -999.0000 -999.0000 0.0000 -999.0000
2022-05-23 02:00:00 2022-05-22 19:00:00 -999.0000 42.74 -999.00 6.4430 -999.0000 8.9 -999.0000 -999 6.8 -999.0000 -999.0000 -0.003 12.8230 -999.0000 13.7 20.1 -999.0000 -999.0000 0.0000 -999.0000
2022-05-23 02:15:00 2022-05-22 19:15:00 -999.0000 42.74 -999.00 6.2860 -999.0000 8.5 -999.0000 -999 6.5 -999.0000 -999.0000 0.021 12.8220 -999.0000 13.7 13.7 -999.0000 -999.0000 0.0000 -999.0000
2022-05-23 02:30:00 2022-05-22 19:30:00 -999.0000 42.74 -999.00 6.0360 -999.0000 8.2 -999.0000 -999 6.0 -999.0000 -999.0000 0.019 12.8220 -999.0000 13.8 13.8 -999.0000 -999.0000 0.0000 -999.0000
2022-05-23 02:45:00 2022-05-22 19:45:00 -999.0000 42.74 -999.00 5.8120 -999.0000 7.7 -999.0000 -999 5.7 -999.0000 -999.0000 0.000 12.8230 -999.0000 13.8 13.9 -999.0000 -999.0000 0.0000 -999.0000
2022-05-23 03:00:00 2022-05-22 20:00:00 -999.0000 42.74 -999.00 5.6330 -999.0000 7.3 -999.0000 -999 5.4 -999.0000 -999.0000 0.017 12.8220 -999.0000 13.8 13.8 -999.0000 -999.0000 0.0000 -999.0000
2022-05-23 03:15:00 2022-05-22 20:15:00 -999.0000 42.74 -999.00 5.3980 -999.0000 6.8 -999.0000 -999 4.9 -999.0000 -999.0000 0.004 12.8220 -999.0000 13.6 13.6 -999.0000 -999.0000 0.0000 -999.0000
2022-05-23 03:30:00 2022-05-22 20:30:00 -999.0000 42.74 -999.00 5.0840 -999.0000 6.5 -999.0000 -999 4.5 -999.0000 -999.0000 0.007 12.8220 -999.0000 13.6 13.6 -999.0000 -999.0000 0.0000 -999.0000
2022-05-23 03:45:00 2022-05-22 20:45:00 -999.0000 42.74 -999.00 4.8230 -999.0000 5.9 -999.0000 -999 4.2 -999.0000 -999.0000 -0.010 12.8210 -999.0000 13.5 12.3 -999.0000 -999.0000 0.0000 -999.0000
2022-05-23 04:00:00 2022-05-22 21:00:00 -999.0000 42.74 -999.00 4.5420 -999.0000 5.4 -999.0000 -999 3.9 -999.0000 -999.0000 0.007 12.8210 -999.0000 13.5 7.5 -999.0000 -999.0000 0.0000 -999.0000
2022-05-23 04:15:00 2022-05-22 21:15:00 -999.0000 42.74 -999.00 4.3290 -999.0000 5.1 -999.0000 -999 3.7 -999.0000 -999.0000 0.003 12.8230 -999.0000 13.4 1.0 -999.0000 -999.0000 0.0000 -999.0000
2022-05-23 04:30:00 2022-05-22 21:30:00 -999.0000 42.74 -999.00 4.1720 -999.0000 4.5 -999.0000 -999 3.6 -999.0000 -999.0000 0.016 12.8250 -999.0000 13.4 0.2 -999.0000 -999.0000 0.0000 -999.0000
2022-05-23 04:45:00 2022-05-22 21:45:00 -999.0000 42.74 -999.00 4.0420 -999.0000 4.2 -999.0000 -999 3.5 -999.0000 -999.0000 0.013 12.8250 -999.0000 13.4 0.0 -999.0000 -999.0000 0.0000 -999.0000
2022-05-23 05:00:00 2022-05-22 22:00:00 -999.0000 42.74 -999.00 3.8720 -999.0000 4.0 -999.0000 -999 3.4 -999.0000 -999.0000 0.008 12.8240 -999.0000 13.4 0.1 -999.0000 -999.0000 0.0000 -999.0000
2022-05-23 05:15:00 2022-05-22 22:15:00 -999.0000 42.74 -999.00 3.7210 -999.0000 3.7 -999.0000 -999 3.2 -999.0000 -999.0000 0.002 12.8230 -999.0000 13.3 0.0 -999.0000 -999.0000 0.0000 -999.0000
2022-05-23 05:30:00 2022-05-22 22:30:00 -999.0000 42.74 -999.00 3.5720 -999.0000 3.5 -999.0000 -999 3.1 -999.0000 -999.0000 0.006 12.8220 -999.0000 13.3 0.0 -999.0000 -999.0000 0.0000 -999.0000
2022-05-23 05:45:00 2022-05-22 22:45:00 -999.0000 42.74 -999.00 3.4900 -999.0000 3.2 -999.0000 -999 3.0 -999.0000 -999.0000 0.002 12.8210 -999.0000 13.3 0.0 -999.0000 -999.0000 0.0000 -999.0000
2022-05-23 06:00:00 2022-05-22 23:00:00 -999.0000 42.74 -999.00 3.4350 -999.0000 3.0 -999.0000 -999 3.0 -999.0000 -999.0000 0.003 12.8200 -999.0000 13.3 0.0 -999.0000 -999.0000 0.0000 -999.0000
2022-05-23 06:15:00 2022-05-22 23:15:00 -999.0000 42.74 -999.00 3.3850 -999.0000 2.8 -999.0000 -999 2.9 -999.0000 -999.0000 0.014 12.8190 -999.0000 13.2 0.1 -999.0000 -999.0000 0.0000 -999.0000
2022-05-23 06:30:00 2022-05-22 23:30:00 -999.0000 42.74 -999.00 3.3560 -999.0000 2.8 -999.0000 -999 3.0 -999.0000 -999.0000 0.015 12.8180 -999.0000 13.2 0.0 -999.0000 -999.0000 0.0000 -999.0000
2022-05-23 06:45:00 2022-05-22 23:45:00 -999.0000 42.74 -999.00 3.3490 -999.0000 2.6 -999.0000 -999 3.1 -999.0000 -999.0000 0.016 12.8160 -999.0000 13.2 0.0 -999.0000 -999.0000 0.0000 -999.0000
2022-05-23 07:00:00 2022-05-23 00:00:00 -999.0000 42.74 -999.00 3.3180 -999.0000 2.5 -999.0000 -999 3.1 -999.0000 -999.0000 0.015 12.8150 -999.0000 13.2 0.0 -999.0000 -999.0000 0.0000 -999.0000
2022-05-23 07:15:00 2022-05-23 00:15:00 -999.0000 42.74 -999.00 3.3100 -999.0000 2.6 -999.0000 -999 3.1 -999.0000 -999.0000 0.013 12.8160 -999.0000 13.2 0.0 -999.0000 -999.0000 0.0000 -999.0000
2022-05-23 07:30:00 2022-05-23 00:30:00 -999.0000 42.74 -999.00 3.2820 -999.0000 2.5 -999.0000 -999 2.9 -999.0000 -999.0000 0.012 12.8140 -999.0000 13.2 0.0 -999.0000 -999.0000 0.0000 -999.0000
2022-05-23 07:45:00 2022-05-23 00:45:00 -999.0000 42.74 -999.00 3.2610 -999.0000 2.3 -999.0000 -999 2.9 -999.0000 -999.0000 0.008 12.8140 -999.0000 13.2 0.0 -999.0000 -999.0000 0.0000 -999.0000
2022-05-23 08:00:00 2022-05-23 01:00:00 -999.0000 42.74 -999.00 3.2190 -999.0000 2.3 -999.0000 -999 2.8 -999.0000 -999.0000 0.009 12.8130 -999.0000 13.2 0.0 -999.0000 -999.0000 0.0000 -999.0000
2022-05-23 08:15:00 2022-05-23 01:15:00 -999.0000 42.74 -999.00 3.1310 -999.0000 2.3 -999.0000 -999 2.7 -999.0000 -999.0000 0.006 12.8130 -999.0000 13.1 0.0 -999.0000 -999.0000 0.0000 -999.0000
2022-05-23 08:30:00 2022-05-23 01:30:00 -999.0000 42.74 -999.00 3.0800 -999.0000 2.3 -999.0000 -999 2.7 -999.0000 -999.0000 0.003 12.8130 -999.0000 13.1 0.1 -999.0000 -999.0000 0.0000 -999.0000
2022-05-23 08:45:00 2022-05-23 01:45:00 -999.0000 42.74 -999.00 3.0530 -999.0000 2.1 -999.0000 -999 2.7 -999.0000 -999.0000 0.002 12.8130 -999.0000 13.1 0.0 -999.0000 -999.0000 0.0000 -999.0000
2022-05-23 09:00:00 2022-05-23 02:00:00 -999.0000 42.74 -999.00 3.0340 -999.0000 2.1 -999.0000 -999 2.6 -999.0000 -999.0000 0.000 12.8120 -999.0000 13.1 0.0 -999.0000 -999.0000 0.0000 -999.0000
2022-05-23 09:15:00 2022-05-23 02:15:00 -999.0000 42.74 -999.00 2.9750 -999.0000 1.9 -999.0000 -999 2.6 -999.0000 -999.0000 -0.006 12.8100 -999.0000 13.1 0.1 -999.0000 -999.0000 0.0000 -999.0000
2022-05-23 09:30:00 2022-05-23 02:30:00 -999.0000 42.74 -999.00 2.9440 -999.0000 2.1 -999.0000 -999 2.6 -999.0000 -999.0000 -0.005 12.8100 -999.0000 13.1 0.0 -999.0000 -999.0000 0.0000 -999.0000
2022-05-23 09:45:00 2022-05-23 02:45:00 -999.0000 42.74 -999.00 2.9720 -999.0000 1.9 -999.0000 -999 2.7 -999.0000 -999.0000 -0.007 12.8090 -999.0000 13.1 0.0 -999.0000 -999.0000 0.0000 -999.0000
2022-05-23 10:00:00 2022-05-23 03:00:00 -999.0000 42.74 -999.00 2.9740 -999.0000 1.9 -999.0000 -999 2.7 -999.0000 -999.0000 -0.008 12.8100 -999.0000 13.1 0.0 -999.0000 -999.0000 0.0000 -999.0000
2022-05-23 10:15:00 2022-05-23 03:15:00 -999.0000 42.74 -999.00 2.9860 -999.0000 1.9 -999.0000 -999 2.7 -999.0000 -999.0000 -0.009 12.8110 -999.0000 13.1 0.0 -999.0000 -999.0000 0.0000 -999.0000
2022-05-23 10:30:00 2022-05-23 03:30:00 -999.0000 42.74 -999.00 2.9930 -999.0000 1.9 -999.0000 -999 2.7 -999.0000 -999.0000 -0.002 12.8110 -999.0000 13.1 0.0 -999.0000 -999.0000 0.0000 -999.0000
2022-05-23 10:45:00 2022-05-23 03:45:00 -999.0000 42.74 -999.00 2.9670 -999.0000 1.9 -999.0000 -999 2.7 -999.0000 -999.0000 0.007 12.8120 -999.0000 13.1 0.0 -999.0000 -999.0000 0.0000 -999.0000
2022-05-23 11:00:00 2022-05-23 04:00:00 -999.0000 42.74 -999.00 2.9230 -999.0000 1.9 -999.0000 -999 2.6 -999.0000 -999.0000 0.010 12.8120 -999.0000 13.1 0.0 -999.0000 -999.0000 0.0000 -999.0000
2022-05-23 11:15:00 2022-05-23 04:15:00 -999.0000 42.75 -999.00 2.8480 -999.0000 1.9 -999.0000 -999 2.6 -999.0000 -999.0000 0.008 12.8100 -999.0000 13.1 0.0 -999.0000 -999.0000 0.0000 -999.0000
2022-05-23 11:30:00 2022-05-23 04:30:00 -999.0000 42.75 -999.00 2.7590 -999.0000 1.9 -999.0000 -999 2.5 -999.0000 -999.0000 0.010 12.8080 -999.0000 13.1 0.1 -999.0000 -999.0000 0.0000 -999.0000
2022-05-23 11:45:00 2022-05-23 04:45:00 -999.0000 42.75 -999.00 2.7390 -999.0000 1.9 -999.0000 -999 2.4 -999.0000 -999.0000 0.012 12.8080 -999.0000 13.1 0.2 -999.0000 -999.0000 0.0000 -999.0000
2022-05-23 12:00:00 2022-05-23 05:00:00 -999.0000 42.75 -999.00 2.7380 -999.0000 1.8 -999.0000 -999 2.4 -999.0000 -999.0000 0.012 12.8090 -999.0000 13.1 1.1 -999.0000 -999.0000 0.0000 -999.0000
2022-05-23 12:15:00 2022-05-23 05:15:00 -999.0000 42.75 -999.00 2.7210 -999.0000 1.8 -999.0000 -999 2.4 -999.0000 -999.0000 0.009 12.8110 -999.0000 13.0 6.0 -999.0000 -999.0000 0.0000 -999.0000
2022-05-23 12:30:00 2022-05-23 05:30:00 -999.0000 42.75 -999.00 2.7230 -999.0000 1.9 -999.0000 -999 2.4 -999.0000 -999.0000 0.012 12.8080 -999.0000 13.0 12.3 -999.0000 -999.0000 0.0000 -999.0000
2022-05-23 12:45:00 2022-05-23 05:45:00 -999.0000 42.75 -999.00 2.6960 -999.0000 1.8 -999.0000 -999 2.5 -999.0000 -999.0000 0.008 12.8090 -999.0000 13.1 13.1 -999.0000 -999.0000 0.0000 -999.0000
2022-05-23 13:00:00 2022-05-23 06:00:00 -999.0000 42.75 -999.00 2.6380 -999.0000 1.8 -999.0000 -999 2.5 -999.0000 -999.0000 0.013 12.8080 -999.0000 13.1 13.1 -999.0000 -999.0000 0.0000 -999.0000
2022-05-23 13:15:00 2022-05-23 06:15:00 -999.0000 42.75 -999.00 2.6680 -999.0000 1.8 -999.0000 -999 2.5 -999.0000 -999.0000 0.015 12.8070 -999.0000 13.1 13.1 -999.0000 -999.0000 0.0000 -999.0000
2022-05-23 13:30:00 2022-05-23 06:30:00 -999.0000 42.75 -999.00 2.6470 -999.0000 1.9 -999.0000 -999 2.6 -999.0000 -999.0000 0.014 12.8070 -999.0000 13.1 13.1 -999.0000 -999.0000 0.0000 -999.0000
2022-05-23 13:45:00 2022-05-23 06:45:00 -999.0000 42.75 -999.00 2.7450 -999.0000 1.8 -999.0000 -999 2.7 -999.0000 -999.0000 0.012 12.8070 -999.0000 13.2 13.2 -999.0000 -999.0000 0.0000 -999.0000
2022-05-23 14:00:00 2022-05-23 07:00:00 -999.0000 42.75 -999.00 2.9520 -999.0000 1.9 -999.0000 -999 3.0 -999.0000 -999.0000 0.011 12.8060 -999.0000 13.2 13.3 -999.0000 -999.0000 0.0000 -999.0000
2022-05-23 14:15:00 2022-05-23 07:15:00 -999.0000 42.75 -999.00 3.1750 -999.0000 2.1 -999.0000 -999 3.3 -999.0000 -999.0000 0.009 12.8040 -999.0000 13.3 13.3 -999.0000 -999.0000 0.0000 -999.0000
2022-05-23 14:30:00 2022-05-23 07:30:00 -999.0000 42.75 -999.00 3.3900 -999.0000 2.3 -999.0000 -999 3.7 -999.0000 -999.0000 0.012 12.8050 -999.0000 13.4 13.5 -999.0000 -999.0000 0.0000 -999.0000
2022-05-23 14:45:00 2022-05-23 07:45:00 -999.0000 42.75 -999.00 3.6110 -999.0000 2.6 -999.0000 -999 4.0 -999.0000 -999.0000 0.012 12.8060 -999.0000 13.5 13.6 -999.0000 -999.0000 0.0000 -999.0000
2022-05-23 15:00:00 2022-05-23 08:00:00 -999.0000 42.75 -999.00 3.7120 -999.0000 2.8 -999.0000 -999 4.3 -999.0000 -999.0000 0.005 12.8050 -999.0000 13.7 13.8 -999.0000 -999.0000 0.0000 -999.0000
2022-05-23 15:15:00 2022-05-23 08:15:00 -999.0000 42.75 -999.00 3.9820 -999.0000 3.3 -999.0000 -999 4.6 -999.0000 -999.0000 -0.019 12.8040 -999.0000 14.1 14.2 -999.0000 -999.0000 0.0000 -999.0000
2022-05-23 15:30:00 2022-05-23 08:30:00 -999.0000 42.75 -999.00 4.3280 -999.0000 3.7 -999.0000 -999 4.9 -999.0000 -999.0000 0.005 12.8070 -999.0000 14.2 14.3 -999.0000 -999.0000 0.0000 -999.0000
2022-05-23 15:45:00 2022-05-23 08:45:00 -999.0000 42.75 -999.00 4.8470 -999.0000 4.0 -999.0000 -999 5.3 -999.0000 -999.0000 -0.013 12.8070 -999.0000 14.0 14.1 -999.0000 -999.0000 0.0000 -999.0000
2022-05-23 16:00:00 2022-05-23 09:00:00 -999.0000 42.75 -999.00 5.4560 -999.0000 4.7 -999.0000 -999 5.9 -999.0000 -999.0000 -0.018 12.8090 -999.0000 14.2 20.5 -999.0000 -999.0000 0.0000 -999.0000
2022-05-23 16:15:00 2022-05-23 09:15:00 -999.0000 42.75 -999.00 5.5020 -999.0000 5.4 -999.0000 -999 5.9 -999.0000 -999.0000 0.004 12.8100 -999.0000 13.9 20.6 -999.0000 -999.0000 0.0000 -999.0000
2022-05-23 16:30:00 2022-05-23 09:30:00 -999.0000 42.75 -999.00 5.2840 -999.0000 5.6 -999.0000 -999 5.7 -999.0000 -999.0000 -0.006 12.8110 -999.0000 13.8 20.9 -999.0000 -999.0000 0.0000 -999.0000
2022-05-23 16:45:00 2022-05-23 09:45:00 -999.0000 42.75 -999.00 5.3100 -999.0000 5.9 -999.0000 -999 5.9 -999.0000 -999.0000 0.015 12.8110 -999.0000 13.9 14.0 -999.0000 -999.0000 0.0000 -999.0000
2022-05-23 17:00:00 2022-05-23 10:00:00 -999.0000 42.75 -999.00 5.4810 -999.0000 6.3 -999.0000 -999 6.2 -999.0000 -999.0000 -0.014 12.8120 -999.0000 13.8 20.7 -999.0000 -999.0000 0.0000 -999.0000
2022-05-23 17:15:00 2022-05-23 10:15:00 -999.0000 42.75 -999.00 5.5760 -999.0000 6.5 -999.0000 -999 6.3 -999.0000 -999.0000 0.006 12.8110 -999.0000 13.9 20.7 -999.0000 -999.0000 0.0000 -999.0000
2022-05-23 17:30:00 2022-05-23 10:30:00 -999.0000 42.75 -999.00 5.5460 -999.0000 6.8 -999.0000 -999 6.1 -999.0000 -999.0000 0.011 12.8120 -999.0000 13.8 20.7 -999.0000 -999.0000 0.0000 -999.0000
2022-05-23 17:45:00 2022-05-23 10:45:00 -999.0000 42.75 -999.00 5.5480 -999.0000 6.8 -999.0000 -999 6.6 -999.0000 -999.0000 0.010 12.8100 -999.0000 13.8 21.2 -999.0000 -999.0000 0.0000 -999.0000
2022-05-23 18:00:00 2022-05-23 11:00:00 -999.0000 42.75 -999.00 5.8300 -999.0000 6.8 -999.0000 -999 6.8 -999.0000 -999.0000 -0.003 12.8090 -999.0000 13.8 20.9 -999.0000 -999.0000 0.0000 -999.0000
2022-05-23 18:15:00 2022-05-23 11:15:00 -999.0000 42.75 -999.00 5.9640 -999.0000 7.2 -999.0000 -999 7.0 -999.0000 -999.0000 -0.019 12.8090 -999.0000 13.9 20.9 -999.0000 -999.0000 0.0000 -999.0000
2022-05-23 18:30:00 2022-05-23 11:30:00 -999.0000 42.75 -999.00 5.9650 -999.0000 7.3 -999.0000 -999 7.1 -999.0000 -999.0000 0.017 12.8100 -999.0000 14.3 23.1 -999.0000 -999.0000 0.0000 -999.0000
2022-05-23 18:45:00 2022-05-23 11:45:00 -999.0000 42.75 -999.00 7.2440 -999.0000 8.0 -999.0000 -999 9.8 -999.0000 -999.0000 0.015 12.8100 -999.0000 13.9 14.0 -999.0000 -999.0000 0.0000 -999.0000
2022-05-23 19:00:00 2022-05-23 12:00:00 -999.0000 42.75 -999.00 7.4700 -999.0000 8.9 -999.0000 -999 9.2 -999.0000 -999.0000 0.005 12.8120 -999.0000 13.8 21.2 -999.0000 -999.0000 0.0000 -999.0000
2022-05-23 19:15:00 2022-05-23 12:15:00 -999.0000 42.75 -999.00 7.7430 -999.0000 9.6 -999.0000 -999 9.6 -999.0000 -999.0000 0.011 12.8110 -999.0000 13.8 20.9 -999.0000 -999.0000 0.0000 -999.0000
2022-05-23 19:30:00 2022-05-23 12:30:00 -999.0000 42.75 -999.00 7.9230 -999.0000 10.1 -999.0000 -999 9.8 -999.0000 -999.0000 0.008 12.8120 -999.0000 14.4 14.6 -999.0000 -999.0000 0.0000 -999.0000
2022-05-23 19:45:00 2022-05-23 12:45:00 -999.0000 42.75 -999.00 8.3370 -999.0000 10.5 -999.0000 -999 11.6 -999.0000 -999.0000 0.011 12.8110 -999.0000 13.8 20.3 -999.0000 -999.0000 0.0000 -999.0000
2022-05-23 20:00:00 2022-05-23 13:00:00 -999.0000 42.75 -999.00 8.7170 -999.0000 11.2 -999.0000 -999 10.6 -999.0000 -999.0000 0.015 12.8100 -999.0000 13.8 20.9 -999.0000 -999.0000 0.0000 -999.0000
2022-05-23 20:15:00 2022-05-23 13:15:00 -999.0000 42.75 -999.00 8.4650 -999.0000 11.3 -999.0000 -999 9.6 -999.0000 -999.0000 0.006 12.8110 -999.0000 13.8 20.5 -999.0000 -999.0000 0.0000 -999.0000
2022-05-23 20:30:00 2022-05-23 13:30:00 -999.0000 42.75 -999.00 7.9380 -999.0000 11.5 -999.0000 -999 9.2 -999.0000 -999.0000 0.002 12.8110 -999.0000 13.8 20.9 -999.0000 -999.0000 0.0000 -999.0000
2022-05-23 20:45:00 2022-05-23 13:45:00 -999.0000 42.75 -999.00 7.3600 -999.0000 11.2 -999.0000 -999 9.8 -999.0000 -999.0000 -0.012 12.8080 -999.0000 13.8 21.0 -999.0000 -999.0000 0.0000 -999.0000
2022-05-23 21:00:00 2022-05-23 14:00:00 -999.0000 42.75 -999.00 8.3620 -999.0000 11.5 -999.0000 -999 14.0 -999.0000 -999.0000 0.008 12.8060 -999.0000 14.2 21.2 -999.0000 -999.0000 0.0000 -999.0000
2022-05-23 21:15:00 2022-05-23 14:15:00 -999.0000 42.75 -999.00 9.0430 -999.0000 12.2 -999.0000 -999 12.7 -999.0000 -999.0000 -0.011 12.8080 -999.0000 13.8 20.7 -999.0000 -999.0000 0.0000 -999.0000
2022-05-23 21:30:00 2022-05-23 14:30:00 -999.0000 42.75 -999.00 8.3600 -999.0000 12.7 -999.0000 -999 11.7 -999.0000 -999.0000 0.018 12.8080 -999.0000 13.8 22.1 -999.0000 -999.0000 0.0000 -999.0000
2022-05-23 21:45:00 2022-05-23 14:45:00 -999.0000 42.75 -999.00 10.5900 -999.0000 13.8 -999.0000 -999 21.0 -999.0000 -999.0000 0.014 12.8070 -999.0000 13.8 20.7 -999.0000 -999.0000 0.0000 -999.0000
2022-05-23 22:00:00 2022-05-23 15:00:00 -999.0000 42.75 -999.00 11.2000 -999.0000 17.1 -999.0000 -999 22.6 -999.0000 -999.0000 0.002 12.8060 -999.0000 13.8 20.8 -999.0000 -999.0000 0.0000 -999.0000
2022-05-23 22:15:00 2022-05-23 15:15:00 -999.0000 42.75 -999.00 11.5280 -999.0000 20.4 -999.0000 -999 24.2 -999.0000 -999.0000 0.017 12.8060 -999.0000 13.7 20.8 -999.0000 -999.0000 0.0000 -999.0000
2022-05-23 22:30:00 2022-05-23 15:30:00 -999.0000 42.75 -999.00 11.1820 -999.0000 21.9 -999.0000 -999 17.6 -999.0000 -999.0000 0.020 12.8060 -999.0000 13.7 20.9 -999.0000 -999.0000 0.0000 -999.0000
2022-05-23 22:45:00 2022-05-23 15:45:00 -999.0000 42.75 -999.00 10.9910 -999.0000 21.4 -999.0000 -999 13.5 -999.0000 -999.0000 0.017 12.8060 -999.0000 14.1 20.7 -999.0000 -999.0000 0.0000 -999.0000
2022-05-23 23:00:00 2022-05-23 16:00:00 -999.0000 42.75 -999.00 10.6860 -999.0000 20.0 -999.0000 -999 11.6 -999.0000 -999.0000 0.007 12.8060 -999.0000 13.8 13.9 -999.0000 -999.0000 0.0000 -999.0000
2022-05-23 23:15:00 2022-05-23 16:15:00 -999.0000 42.75 -999.00 10.2230 -999.0000 18.4 -999.0000 -999 10.8 -999.0000 -999.0000 0.007 12.8040 -999.0000 13.8 20.5 -999.0000 -999.0000 0.0000 -999.0000
2022-05-23 23:30:00 2022-05-23 16:30:00 -999.0000 42.75 -999.00 10.0880 -999.0000 17.1 -999.0000 -999 10.0 -999.0000 -999.0000 0.026 12.8080 -999.0000 13.8 13.9 -999.0000 -999.0000 0.0000 -999.0000
2022-05-23 23:45:00 2022-05-23 16:45:00 -999.0000 42.75 -999.00 9.6450 -999.0000 15.5 -999.0000 -999 9.4 -999.0000 -999.0000 -0.007 12.8060 -999.0000 13.7 19.7 -999.0000 -999.0000 0.0000 -999.0000
2022-05-24 00:00:00 2022-05-23 17:00:00 -999.0000 42.75 -999.00 8.8960 -999.0000 14.3 -999.0000 -999 9.1 -999.0000 -999.0000 0.014 12.8040 -999.0000 13.8 20.7 -999.0000 -999.0000 0.0000 -999.0000
2022-05-24 00:15:00 2022-05-23 17:15:00 -999.0000 42.75 -999.00 8.9250 -999.0000 13.2 -999.0000 -999 8.6 -999.0000 -999.0000 0.034 12.8020 -999.0000 14.0 14.1 -999.0000 -999.0000 0.0000 -999.0000
2022-05-24 00:30:00 2022-05-23 17:30:00 -999.0000 42.75 -999.00 8.2200 -999.0000 12.4 -999.0000 -999 8.1 -999.0000 -999.0000 0.020 12.8020 -999.0000 13.7 19.8 -999.0000 -999.0000 0.0000 -999.0000
2022-05-24 00:45:00 2022-05-23 17:45:00 -999.0000 42.75 -999.00 7.8770 -999.0000 11.5 -999.0000 -999 7.3 -999.0000 -999.0000 -0.004 12.8010 -999.0000 13.8 20.1 -999.0000 -999.0000 0.0000 -999.0000
2022-05-24 01:00:00 2022-05-23 18:00:00 -999.0000 42.75 -999.00 7.5230 -999.0000 10.8 -999.0000 -999 6.9 -999.0000 -999.0000 0.017 12.7960 -999.0000 13.9 13.9 -999.0000 -999.0000 0.0000 -999.0000
2022-05-24 01:15:00 2022-05-23 18:15:00 -999.0000 42.75 -999.00 7.3480 -999.0000 10.1 -999.0000 -999 6.5 -999.0000 -999.0000 0.007 12.7970 -999.0000 13.8 13.8 -999.0000 -999.0000 0.0000 -999.0000
2022-05-24 01:30:00 2022-05-23 18:30:00 -999.0000 42.75 -999.00 7.1270 -999.0000 9.4 -999.0000 -999 6.2 -999.0000 -999.0000 -0.012 12.7950 -999.0000 13.8 13.9 -999.0000 -999.0000 0.0000 -999.0000
2022-05-24 01:45:00 2022-05-23 18:45:00 -999.0000 42.75 -999.00 6.5280 -999.0000 8.7 -999.0000 -999 5.8 -999.0000 -999.0000 -0.004 12.7930 -999.0000 13.9 13.9 -999.0000 -999.0000 0.0000 -999.0000
2022-05-24 02:00:00 2022-05-23 19:00:00 -999.0000 42.75 -999.00 6.0290 -999.0000 8.0 -999.0000 -999 5.4 -999.0000 -999.0000 -0.016 12.7920 -999.0000 13.8 13.8 -999.0000 -999.0000 0.0000 -999.0000
2022-05-24 02:15:00 2022-05-23 19:15:00 -999.0000 42.75 -999.00 5.6740 -999.0000 7.7 -999.0000 -999 4.9 -999.0000 -999.0000 0.004 12.7920 -999.0000 13.7 13.7 -999.0000 -999.0000 0.0000 -999.0000
2022-05-24 02:30:00 2022-05-23 19:30:00 -999.0000 42.75 -999.00 5.4610 -999.0000 7.2 -999.0000 -999 5.0 -999.0000 -999.0000 -0.018 12.7930 -999.0000 14.1 14.2 -999.0000 -999.0000 0.0000 -999.0000
2022-05-24 02:45:00 2022-05-23 19:45:00 -999.0000 42.75 -999.00 5.2440 -999.0000 6.6 -999.0000 -999 4.7 -999.0000 -999.0000 -0.016 12.7940 -999.0000 13.8 13.8 -999.0000 -999.0000 0.0000 -999.0000
2022-05-24 03:00:00 2022-05-23 20:00:00 -999.0000 42.75 -999.00 4.9330 -999.0000 5.9 -999.0000 -999 4.2 -999.0000 -999.0000 -0.016 12.7920 -999.0000 13.7 13.7 -999.0000 -999.0000 0.0000 -999.0000
2022-05-24 03:15:00 2022-05-23 20:15:00 -999.0000 42.75 -999.00 4.5820 -999.0000 5.8 -999.0000 -999 4.0 -999.0000 -999.0000 -0.002 12.7890 -999.0000 13.6 13.6 -999.0000 -999.0000 0.0000 -999.0000
2022-05-24 03:30:00 2022-05-23 20:30:00 -999.0000 42.75 -999.00 4.3510 -999.0000 5.2 -999.0000 -999 3.7 -999.0000 -999.0000 -0.014 12.7910 -999.0000 13.6 13.6 -999.0000 -999.0000 0.0000 -999.0000
2022-05-24 03:45:00 2022-05-23 20:45:00 -999.0000 42.75 -999.00 4.4570 -999.0000 4.7 -999.0000 -999 4.0 -999.0000 -999.0000 -0.015 12.7930 -999.0000 13.6 12.5 -999.0000 -999.0000 0.0000 -999.0000
2022-05-24 04:00:00 2022-05-23 21:00:00 -999.0000 42.75 -999.00 4.5040 -999.0000 4.5 -999.0000 -999 3.9 -999.0000 -999.0000 -0.014 12.7970 -999.0000 13.5 7.3 -999.0000 -999.0000 0.0000 -999.0000
2022-05-24 04:15:00 2022-05-23 21:15:00 -999.0000 42.75 -999.00 4.2960 -999.0000 4.4 -999.0000 -999 3.7 -999.0000 -999.0000 -0.030 12.7980 -999.0000 13.5 0.9 -999.0000 -999.0000 0.0000 -999.0000
2022-05-24 04:30:00 2022-05-23 21:30:00 -999.0000 42.75 -999.00 3.8620 -999.0000 4.0 -999.0000 -999 3.3 -999.0000 -999.0000 -0.020 12.7950 -999.0000 13.4 0.2 -999.0000 -999.0000 0.0000 -999.0000
2022-05-24 04:45:00 2022-05-23 21:45:00 -999.0000 42.75 -999.00 3.4650 -999.0000 3.7 -999.0000 -999 3.0 -999.0000 -999.0000 -0.006 12.7950 -999.0000 13.5 0.1 -999.0000 -999.0000 0.0000 -999.0000
2022-05-24 05:00:00 2022-05-23 22:00:00 -999.0000 42.75 -999.00 3.3300 -999.0000 3.3 -999.0000 -999 2.8 -999.0000 -999.0000 0.015 12.7940 -999.0000 13.4 0.0 -999.0000 -999.0000 0.0000 -999.0000
2022-05-24 05:15:00 2022-05-23 22:15:00 -999.0000 42.75 -999.00 3.1580 -999.0000 3.2 -999.0000 -999 2.8 -999.0000 -999.0000 0.008 12.7930 -999.0000 13.3 0.1 -999.0000 -999.0000 0.0000 -999.0000
2022-05-24 05:30:00 2022-05-23 22:30:00 -999.0000 42.75 -999.00 3.0840 -999.0000 2.8 -999.0000 -999 2.8 -999.0000 -999.0000 -0.027 12.7900 -999.0000 13.3 0.0 -999.0000 -999.0000 0.0000 -999.0000
2022-05-24 05:45:00 2022-05-23 22:45:00 -999.0000 42.75 -999.00 2.9910 -999.0000 2.6 -999.0000 -999 2.6 -999.0000 -999.0000 -0.020 12.7860 -999.0000 13.3 0.0 -999.0000 -999.0000 0.0000 -999.0000
2022-05-24 06:00:00 2022-05-23 23:00:00 -999.0000 42.75 -999.00 2.8230 -999.0000 2.5 -999.0000 -999 2.4 -999.0000 -999.0000 -0.010 12.7860 -999.0000 13.3 0.1 -999.0000 -999.0000 0.0000 -999.0000
2022-05-24 06:15:00 2022-05-23 23:15:00 -999.0000 42.75 -999.00 2.8070 -999.0000 2.5 -999.0000 -999 2.5 -999.0000 -999.0000 0.000 12.7870 -999.0000 13.2 0.0 -999.0000 -999.0000 0.0000 -999.0000
2022-05-24 06:30:00 2022-05-23 23:30:00 -999.0000 42.75 -999.00 2.7230 -999.0000 2.1 -999.0000 -999 2.4 -999.0000 -999.0000 0.006 12.7860 -999.0000 13.2 0.0 -999.0000 -999.0000 0.0000 -999.0000
2022-05-24 06:45:00 2022-05-23 23:45:00 -999.0000 42.75 -999.00 2.6250 -999.0000 1.9 -999.0000 -999 2.3 -999.0000 -999.0000 0.002 12.7850 -999.0000 13.2 0.0 -999.0000 -999.0000 0.0000 -999.0000
2022-05-24 07:00:00 2022-05-24 00:00:00 -999.0000 42.75 -999.00 2.5140 -999.0000 1.9 -999.0000 -999 2.1 -999.0000 -999.0000 0.005 12.7850 -999.0000 13.2 0.0 -999.0000 -999.0000 0.0000 -999.0000
2022-05-24 07:15:00 2022-05-24 00:15:00 -999.0000 42.75 -999.00 2.4030 -999.0000 1.8 -999.0000 -999 1.9 -999.0000 -999.0000 0.006 12.7850 -999.0000 13.2 0.0 -999.0000 -999.0000 0.0000 -999.0000
2022-05-24 07:30:00 2022-05-24 00:30:00 -999.0000 42.75 -999.00 2.2580 -999.0000 1.8 -999.0000 -999 1.8 -999.0000 -999.0000 0.004 12.7840 -999.0000 13.2 0.0 -999.0000 -999.0000 0.0000 -999.0000
2022-05-24 07:45:00 2022-05-24 00:45:00 -999.0000 42.75 -999.00 2.2350 -999.0000 1.6 -999.0000 -999 2.0 -999.0000 -999.0000 0.009 12.7850 -999.0000 13.2 0.0 -999.0000 -999.0000 0.0000 -999.0000
2022-05-24 08:00:00 2022-05-24 01:00:00 -999.0000 42.75 -999.00 2.2670 -999.0000 1.4 -999.0000 -999 2.2 -999.0000 -999.0000 0.007 12.7840 -999.0000 13.2 0.0 -999.0000 -999.0000 0.0000 -999.0000
2022-05-24 08:15:00 2022-05-24 01:15:00 -999.0000 42.75 -999.00 2.3000 -999.0000 1.4 -999.0000 -999 2.2 -999.0000 -999.0000 0.010 12.7840 -999.0000 13.1 0.0 -999.0000 -999.0000 0.0000 -999.0000
2022-05-24 08:30:00 2022-05-24 01:30:00 -999.0000 42.75 -999.00 2.2890 -999.0000 1.4 -999.0000 -999 2.2 -999.0000 -999.0000 0.008 12.7840 -999.0000 13.1 0.0 -999.0000 -999.0000 0.0000 -999.0000
2022-05-24 08:45:00 2022-05-24 01:45:00 -999.0000 42.75 -999.00 2.2850 -999.0000 1.4 -999.0000 -999 2.1 -999.0000 -999.0000 0.010 12.7840 -999.0000 13.1 0.0 -999.0000 -999.0000 0.0000 -999.0000
2022-05-24 09:00:00 2022-05-24 02:00:00 -999.0000 42.75 -999.00 2.3040 -999.0000 1.4 -999.0000 -999 2.2 -999.0000 -999.0000 0.012 12.7840 -999.0000 13.1 0.0 -999.0000 -999.0000 0.0000 -999.0000
2022-05-24 09:15:00 2022-05-24 02:15:00 -999.0000 42.75 -999.00 2.3170 -999.0000 1.4 -999.0000 -999 2.2 -999.0000 -999.0000 0.008 12.7820 -999.0000 13.1 0.0 -999.0000 -999.0000 0.0000 -999.0000
2022-05-24 09:30:00 2022-05-24 02:30:00 -999.0000 42.75 -999.00 2.3640 -999.0000 1.4 -999.0000 -999 2.3 -999.0000 -999.0000 0.007 12.7800 -999.0000 13.1 0.0 -999.0000 -999.0000 0.0000 -999.0000
2022-05-24 09:45:00 2022-05-24 02:45:00 -999.0000 42.75 -999.00 2.4060 -999.0000 1.4 -999.0000 -999 2.3 -999.0000 -999.0000 0.007 12.7810 -999.0000 13.1 0.0 -999.0000 -999.0000 0.0000 -999.0000
2022-05-24 10:00:00 2022-05-24 03:00:00 -999.0000 42.75 -999.00 2.4060 -999.0000 1.2 -999.0000 -999 2.2 -999.0000 -999.0000 0.008 12.7810 -999.0000 13.1 0.0 -999.0000 -999.0000 0.0000 -999.0000
2022-05-24 10:15:00 2022-05-24 03:15:00 -999.0000 42.75 -999.00 2.3970 -999.0000 1.4 -999.0000 -999 2.1 -999.0000 -999.0000 0.006 12.7800 -999.0000 13.1 0.0 -999.0000 -999.0000 0.0000 -999.0000
2022-05-24 10:30:00 2022-05-24 03:30:00 -999.0000 42.75 -999.00 2.3310 -999.0000 1.4 -999.0000 -999 1.9 -999.0000 -999.0000 0.006 12.7790 -999.0000 13.1 0.0 -999.0000 -999.0000 0.0000 -999.0000
2022-05-24 10:45:00 2022-05-24 03:45:00 -999.0000 42.75 -999.00 2.1590 -999.0000 1.2 -999.0000 -999 1.7 -999.0000 -999.0000 0.005 12.7800 -999.0000 13.1 0.0 -999.0000 -999.0000 0.0000 -999.0000
2022-05-24 11:00:00 2022-05-24 04:00:00 -999.0000 42.75 -999.00 1.9270 -999.0000 1.1 -999.0000 -999 1.4 -999.0000 -999.0000 0.007 12.7780 -999.0000 13.1 0.0 -999.0000 -999.0000 0.0000 -999.0000
2022-05-24 11:15:00 2022-05-24 04:15:00 -999.0000 42.75 -999.00 1.7790 -999.0000 1.1 -999.0000 -999 1.3 -999.0000 -999.0000 0.007 12.7740 -999.0000 13.1 0.0 -999.0000 -999.0000 0.0000 -999.0000
2022-05-24 11:30:00 2022-05-24 04:30:00 -999.0000 42.75 -999.00 1.6240 -999.0000 1.1 -999.0000 -999 1.1 -999.0000 -999.0000 0.009 12.7720 -999.0000 13.1 0.1 -999.0000 -999.0000 0.0000 -999.0000
2022-05-24 11:45:00 2022-05-24 04:45:00 -999.0000 42.75 -999.00 1.5030 -999.0000 0.9 -999.0000 -999 1.0 -999.0000 -999.0000 0.009 12.7690 -999.0000 13.1 0.5 -999.0000 -999.0000 0.0000 -999.0000
2022-05-24 12:00:00 2022-05-24 05:00:00 -999.0000 42.75 -999.00 1.3740 -999.0000 0.7 -999.0000 -999 0.8 -999.0000 -999.0000 0.008 12.7690 -999.0000 13.1 5.2 -999.0000 -999.0000 0.0000 -999.0000
2022-05-24 12:15:00 2022-05-24 05:15:00 -999.0000 42.75 -999.00 1.2390 -999.0000 0.6 -999.0000 -999 0.7 -999.0000 -999.0000 0.009 12.7690 -999.0000 13.0 12.6 -999.0000 -999.0000 0.0000 -999.0000
2022-05-24 12:30:00 2022-05-24 05:30:00 -999.0000 42.75 -999.00 1.1710 -999.0000 0.4 -999.0000 -999 0.8 -999.0000 -999.0000 0.010 12.7710 -999.0000 13.1 13.0 -999.0000 -999.0000 0.0000 -999.0000
2022-05-24 12:45:00 2022-05-24 05:45:00 -999.0000 42.75 -999.00 1.1960 -999.0000 0.2 -999.0000 -999 1.0 -999.0000 -999.0000 0.012 12.7700 -999.0000 13.1 13.1 -999.0000 -999.0000 0.0000 -999.0000
2022-05-24 13:00:00 2022-05-24 06:00:00 -999.0000 42.75 -999.00 1.2960 -999.0000 0.2 -999.0000 -999 1.2 -999.0000 -999.0000 0.011 12.7680 -999.0000 13.1 13.1 -999.0000 -999.0000 0.0000 -999.0000
2022-05-24 13:15:00 2022-05-24 06:15:00 -999.0000 42.75 -999.00 1.4120 -999.0000 0.4 -999.0000 -999 1.3 -999.0000 -999.0000 0.012 12.7670 -999.0000 13.1 13.1 -999.0000 -999.0000 0.0000 -999.0000
2022-05-24 13:30:00 2022-05-24 06:30:00 -999.0000 42.75 -999.00 1.5660 -999.0000 0.6 -999.0000 -999 1.5 -999.0000 -999.0000 0.012 12.7670 -999.0000 13.1 13.1 -999.0000 -999.0000 0.0000 -999.0000
2022-05-24 13:45:00 2022-05-24 06:45:00 -999.0000 42.75 -999.00 1.7550 -999.0000 0.4 -999.0000 -999 1.8 -999.0000 -999.0000 0.011 12.7660 -999.0000 13.2 13.2 -999.0000 -999.0000 0.0000 -999.0000
2022-05-24 14:00:00 2022-05-24 07:00:00 -999.0000 42.75 -999.00 1.9810 -999.0000 0.6 -999.0000 -999 2.2 -999.0000 -999.0000 0.013 12.7650 -999.0000 13.3 13.3 -999.0000 -999.0000 0.0000 -999.0000
2022-05-24 14:15:00 2022-05-24 07:15:00 -999.0000 42.75 -999.00 2.2120 -999.0000 0.9 -999.0000 -999 2.4 -999.0000 -999.0000 0.013 12.7670 -999.0000 13.3 13.3 -999.0000 -999.0000 0.0000 -999.0000
2022-05-24 14:30:00 2022-05-24 07:30:00 -999.0000 42.75 -999.00 2.4300 -999.0000 1.2 -999.0000 -999 2.3 -999.0000 -999.0000 0.012 12.7630 -999.0000 13.4 13.4 -999.0000 -999.0000 0.0000 -999.0000
2022-05-24 14:45:00 2022-05-24 07:45:00 -999.0000 42.75 -999.00 2.6830 -999.0000 1.4 -999.0000 -999 2.5 -999.0000 -999.0000 0.011 12.7620 -999.0000 13.5 13.5 -999.0000 -999.0000 0.0000 -999.0000
2022-05-24 15:00:00 2022-05-24 08:00:00 -999.0000 42.75 -999.00 2.9860 -999.0000 1.6 -999.0000 -999 2.9 -999.0000 -999.0000 0.012 12.7620 -999.0000 13.6 13.6 -999.0000 -999.0000 0.0000 -999.0000
2022-05-24 15:15:00 2022-05-24 08:15:00 -999.0000 42.75 -999.00 3.3940 -999.0000 2.1 -999.0000 -999 3.5 -999.0000 -999.0000 0.015 12.7630 -999.0000 14.0 14.1 -999.0000 -999.0000 0.0000 -999.0000
2022-05-24 15:30:00 2022-05-24 08:30:00 -999.0000 42.75 -999.00 3.8240 -999.0000 2.6 -999.0000 -999 4.0 -999.0000 -999.0000 0.017 12.7620 -999.0000 14.3 14.4 -999.0000 -999.0000 0.0000 -999.0000
2022-05-24 15:45:00 2022-05-24 08:45:00 -999.0000 42.75 -999.00 4.2760 -999.0000 2.8 -999.0000 -999 4.6 -999.0000 -999.0000 0.017 12.7640 -999.0000 14.5 14.6 -999.0000 -999.0000 0.0000 -999.0000
2022-05-24 16:00:00 2022-05-24 09:00:00 -999.0000 42.75 -999.00 4.7860 -999.0000 3.5 -999.0000 -999 5.2 -999.0000 -999.0000 0.011 12.7650 -999.0000 13.9 21.1 -999.0000 -999.0000 0.0000 -999.0000
2022-05-24 16:15:00 2022-05-24 09:15:00 -999.0000 42.75 -999.00 5.1040 -999.0000 4.2 -999.0000 -999 5.8 -999.0000 -999.0000 0.015 12.7670 -999.0000 13.9 21.1 -999.0000 -999.0000 0.0000 -999.0000
2022-05-24 16:30:00 2022-05-24 09:30:00 -999.0000 42.75 -999.00 5.1890 -999.0000 4.9 -999.0000 -999 6.3 -999.0000 -999.0000 0.013 12.7670 -999.0000 14.1 21.2 -999.0000 -999.0000 0.0000 -999.0000
2022-05-24 16:45:00 2022-05-24 09:45:00 -999.0000 42.75 -999.00 5.6050 -999.0000 5.6 -999.0000 -999 7.0 -999.0000 -999.0000 0.013 12.7630 -999.0000 13.8 21.6 -999.0000 -999.0000 0.0000 -999.0000
2022-05-24 17:00:00 2022-05-24 10:00:00 -999.0000 42.75 -999.00 6.2770 -999.0000 6.6 -999.0000 -999 8.0 -999.0000 -999.0000 0.004 12.7680 -999.0000 14.0 14.2 -999.0000 -999.0000 0.0000 -999.0000
2022-05-24 17:15:00 2022-05-24 10:15:00 -999.0000 42.75 -999.00 6.5320 -999.0000 7.7 -999.0000 -999 8.7 -999.0000 -999.0000 -0.004 12.7680 -999.0000 13.8 21.2 -999.0000 -999.0000 0.0000 -999.0000
2022-05-24 17:30:00 2022-05-24 10:30:00 -999.0000 42.75 -999.00 6.9050 -999.0000 8.7 -999.0000 -999 9.5 -999.0000 -999.0000 0.012 12.7690 -999.0000 13.9 21.2 -999.0000 -999.0000 0.0000 -999.0000
2022-05-24 17:45:00 2022-05-24 10:45:00 -999.0000 42.75 -999.00 7.5990 -999.0000 9.8 -999.0000 -999 12.7 -999.0000 -999.0000 0.021 12.7670 -999.0000 13.8 21.2 -999.0000 -999.0000 0.0000 -999.0000
2022-05-24 18:00:00 2022-05-24 11:00:00 -999.0000 42.75 -999.00 8.6040 -999.0000 11.5 -999.0000 -999 13.9 -999.0000 -999.0000 0.012 12.7680 -999.0000 13.8 20.5 -999.0000 -999.0000 0.0000 -999.0000
2022-05-24 18:15:00 2022-05-24 11:15:00 -999.0000 42.75 -999.00 8.8220 -999.0000 12.9 -999.0000 -999 12.7 -999.0000 -999.0000 -0.020 12.7700 -999.0000 13.8 21.1 -999.0000 -999.0000 0.0000 -999.0000
2022-05-24 18:30:00 2022-05-24 11:30:00 -999.0000 42.75 -999.00 8.9330 -999.0000 13.6 -999.0000 -999 12.7 -999.0000 -999.0000 -0.001 12.7700 -999.0000 13.8 21.3 -999.0000 -999.0000 0.0000 -999.0000
2022-05-24 18:45:00 2022-05-24 11:45:00 -999.0000 42.75 -999.00 10.0090 -999.0000 14.1 -999.0000 -999 14.2 -999.0000 -999.0000 0.021 12.7730 -999.0000 13.9 20.9 -999.0000 -999.0000 0.0000 -999.0000
2022-05-24 19:00:00 2022-05-24 12:00:00 -999.0000 42.75 -999.00 10.8110 -999.0000 14.6 -999.0000 -999 14.1 -999.0000 -999.0000 -0.002 12.7730 -999.0000 13.8 20.8 -999.0000 -999.0000 0.0000 -999.0000
2022-05-24 19:15:00 2022-05-24 12:15:00 -999.0000 42.75 -999.00 10.9020 -999.0000 15.1 -999.0000 -999 12.7 -999.0000 -999.0000 0.023 12.7740 -999.0000 13.8 21.3 -999.0000 -999.0000 0.0000 -999.0000
2022-05-24 19:30:00 2022-05-24 12:30:00 -999.0000 42.75 -999.00 10.8050 -999.0000 15.3 -999.0000 -999 12.4 -999.0000 -999.0000 0.018 12.7740 -999.0000 13.8 21.5 -999.0000 -999.0000 0.0000 -999.0000
2022-05-24 19:45:00 2022-05-24 12:45:00 -999.0000 42.75 -999.00 11.2670 -999.0000 15.3 -999.0000 -999 13.7 -999.0000 -999.0000 0.005 12.7750 -999.0000 13.9 20.6 -999.0000 -999.0000 0.0000 -999.0000
2022-05-24 20:00:00 2022-05-24 13:00:00 -999.0000 42.75 -999.00 11.1420 -999.0000 15.3 -999.0000 -999 14.0 -999.0000 -999.0000 0.016 12.7730 -999.0000 13.8 21.2 -999.0000 -999.0000 0.0000 -999.0000
2022-05-24 20:15:00 2022-05-24 13:15:00 -999.0000 42.75 -999.00 11.8300 -999.0000 15.8 -999.0000 -999 17.9 -999.0000 -999.0000 0.024 12.7660 -999.0000 14.1 20.8 -999.0000 -999.0000 0.0000 -999.0000
2022-05-24 20:30:00 2022-05-24 13:30:00 -999.0000 42.75 -999.00 12.5250 -999.0000 16.7 -999.0000 -999 18.2 -999.0000 -999.0000 0.028 12.7660 -999.0000 13.8 20.6 -999.0000 -999.0000 0.0000 -999.0000
2022-05-24 20:45:00 2022-05-24 13:45:00 -999.0000 42.75 -999.00 12.9460 -999.0000 17.4 -999.0000 -999 19.4 -999.0000 -999.0000 0.025 12.7640 -999.0000 13.7 20.2 -999.0000 -999.0000 0.0000 -999.0000
2022-05-24 21:00:00 2022-05-24 14:00:00 -999.0000 42.75 -999.00 12.1880 -999.0000 17.9 -999.0000 -999 17.1 -999.0000 -999.0000 0.036 12.7630 -999.0000 13.7 20.9 -999.0000 -999.0000 0.0000 -999.0000
2022-05-24 21:15:00 2022-05-24 14:15:00 -999.0000 42.75 -999.00 13.0490 -999.0000 18.3 -999.0000 -999 20.5 -999.0000 -999.0000 0.044 12.7650 -999.0000 13.7 20.6 -999.0000 -999.0000 0.0000 -999.0000
2022-05-24 21:30:00 2022-05-24 14:30:00 -999.0000 42.75 -999.00 11.8610 -999.0000 19.1 -999.0000 -999 16.6 -999.0000 -999.0000 0.012 12.7650 -999.0000 13.7 21.4 -999.0000 -999.0000 0.0000 -999.0000
2022-05-24 21:45:00 2022-05-24 14:45:00 -999.0000 42.75 -999.00 11.8060 -999.0000 18.8 -999.0000 -999 16.5 -999.0000 -999.0000 0.016 12.7640 -999.0000 13.8 20.9 -999.0000 -999.0000 0.0000 -999.0000
2022-05-24 22:00:00 2022-05-24 15:00:00 -999.0000 42.75 -999.00 11.1370 -999.0000 18.4 -999.0000 -999 13.7 -999.0000 -999.0000 0.026 12.7630 -999.0000 13.7 21.0 -999.0000 -999.0000 0.0000 -999.0000
2022-05-24 22:15:00 2022-05-24 15:15:00 -999.0000 42.75 -999.00 10.7710 -999.0000 17.8 -999.0000 -999 12.0 -999.0000 -999.0000 0.021 12.7650 -999.0000 13.8 14.0 -999.0000 -999.0000 0.0000 -999.0000
2022-05-24 22:30:00 2022-05-24 15:30:00 -999.0000 42.75 -999.00 9.8990 -999.0000 16.5 -999.0000 -999 10.5 -999.0000 -999.0000 0.018 12.7670 -999.0000 13.7 20.9 -999.0000 -999.0000 0.0000 -999.0000
2022-05-24 22:45:00 2022-05-24 15:45:00 -999.0000 42.75 -999.00 9.2000 -999.0000 15.3 -999.0000 -999 9.8 -999.0000 -999.0000 0.015 12.7610 -999.0000 13.8 13.8 -999.0000 -999.0000 0.0000 -999.0000
2022-05-24 23:00:00 2022-05-24 16:00:00 -999.0000 42.75 -999.00 8.1800 -999.0000 14.1 -999.0000 -999 8.4 -999.0000 -999.0000 0.023 12.7610 -999.0000 14.4 20.8 -999.0000 -999.0000 0.0000 -999.0000
2022-05-24 23:15:00 2022-05-24 16:15:00 -999.0000 42.75 -999.00 7.5070 -999.0000 12.7 -999.0000 -999 7.5 -999.0000 -999.0000 0.002 12.7630 -999.0000 14.2 14.2 -999.0000 -999.0000 0.0000 -999.0000
2022-05-24 23:30:00 2022-05-24 16:30:00 -999.0000 42.75 -999.00 6.8640 -999.0000 11.5 -999.0000 -999 7.0 -999.0000 -999.0000 0.010 12.7580 -999.0000 13.8 20.6 -999.0000 -999.0000 0.0000 -999.0000
2022-05-24 23:45:00 2022-05-24 16:45:00 -999.0000 42.76 -999.00 5.8110 -999.0000 10.5 -999.0000 -999 6.6 -999.0000 -999.0000 0.010 12.7560 -999.0000 13.8 13.8 -999.0000 -999.0000 0.0000 -999.0000
2022-05-25 00:00:00 2022-05-24 17:00:00 -999.0000 42.77 -999.00 5.3820 -999.0000 9.4 -999.0000 -999 6.0 -999.0000 -999.0000 0.031 12.7560 -999.0000 13.8 19.9 -999.0000 -999.0000 0.0000 -999.0000
2022-05-25 00:15:00 2022-05-24 17:15:00 -999.0000 42.78 -999.00 5.0560 -999.0000 8.5 -999.0000 -999 5.6 -999.0000 -999.0000 0.014 12.7580 -999.0000 13.8 13.9 -999.0000 -999.0000 0.0000 -999.0000
2022-05-25 00:30:00 2022-05-24 17:30:00 -999.0000 42.80 -999.00 4.9280 -999.0000 8.0 -999.0000 -999 5.9 -999.0000 -999.0000 0.015 12.7550 -999.0000 13.8 13.9 -999.0000 -999.0000 0.0000 -999.0000
2022-05-25 00:45:00 2022-05-24 17:45:00 -999.0000 42.80 -999.00 4.9280 -999.0000 7.2 -999.0000 -999 5.8 -999.0000 -999.0000 0.018 12.7540 -999.0000 14.5 14.5 -999.0000 -999.0000 0.0000 -999.0000
2022-05-25 01:00:00 2022-05-24 18:00:00 -999.0000 42.80 -999.00 4.8550 -999.0000 6.8 -999.0000 -999 5.7 -999.0000 -999.0000 0.020 12.7520 -999.0000 14.4 20.6 -999.0000 -999.0000 0.0000 -999.0000
2022-05-25 01:15:00 2022-05-24 18:15:00 -999.0000 42.81 -999.00 4.7120 -999.0000 6.5 -999.0000 -999 5.7 -999.0000 -999.0000 0.023 12.7500 -999.0000 14.2 20.3 -999.0000 -999.0000 0.0000 -999.0000
2022-05-25 01:30:00 2022-05-24 18:30:00 -999.0000 42.81 -999.00 4.6370 -999.0000 6.3 -999.0000 -999 5.3 -999.0000 -999.0000 0.018 12.7460 -999.0000 14.2 14.3 -999.0000 -999.0000 0.0000 -999.0000
2022-05-25 01:45:00 2022-05-24 18:45:00 -999.0000 42.81 -999.00 4.4970 -999.0000 5.9 -999.0000 -999 5.1 -999.0000 -999.0000 0.016 12.7450 -999.0000 14.2 14.3 -999.0000 -999.0000 0.0000 -999.0000
2022-05-25 02:00:00 2022-05-24 19:00:00 -999.0000 42.81 -999.00 4.3650 -999.0000 5.6 -999.0000 -999 4.9 -999.0000 -999.0000 0.009 12.7450 -999.0000 14.1 14.1 -999.0000 -999.0000 0.0000 -999.0000
2022-05-25 02:15:00 2022-05-24 19:15:00 -999.0000 42.81 -999.00 4.2410 -999.0000 5.4 -999.0000 -999 4.5 -999.0000 -999.0000 0.006 12.7430 -999.0000 13.8 13.8 -999.0000 -999.0000 0.0000 -999.0000
2022-05-25 02:30:00 2022-05-24 19:30:00 -999.0000 42.81 -999.00 4.1080 -999.0000 5.2 -999.0000 -999 4.3 -999.0000 -999.0000 0.007 12.7420 -999.0000 13.8 13.8 -999.0000 -999.0000 0.0000 -999.0000
2022-05-25 02:45:00 2022-05-24 19:45:00 -999.0000 42.81 -999.00 3.9910 -999.0000 4.9 -999.0000 -999 4.1 -999.0000 -999.0000 0.007 12.7400 -999.0000 13.7 13.7 -999.0000 -999.0000 0.0000 -999.0000
2022-05-25 03:00:00 2022-05-24 20:00:00 -999.0000 42.81 -999.00 3.8870 -999.0000 4.5 -999.0000 -999 3.9 -999.0000 -999.0000 0.005 12.7400 -999.0000 13.7 13.7 -999.0000 -999.0000 0.0000 -999.0000
2022-05-25 03:15:00 2022-05-24 20:15:00 -999.0000 42.81 -999.00 3.7580 -999.0000 4.4 -999.0000 -999 3.8 -999.0000 -999.0000 0.007 12.7390 -999.0000 13.6 13.6 -999.0000 -999.0000 0.0000 -999.0000
2022-05-25 03:30:00 2022-05-24 20:30:00 -999.0000 42.81 -999.00 3.6320 -999.0000 4.0 -999.0000 -999 3.6 -999.0000 -999.0000 0.011 12.7370 -999.0000 13.6 13.5 -999.0000 -999.0000 0.0000 -999.0000
2022-05-25 03:45:00 2022-05-24 20:45:00 -999.0000 42.81 -999.00 3.5690 -999.0000 3.9 -999.0000 -999 3.5 -999.0000 -999.0000 0.016 12.7360 -999.0000 13.5 12.2 -999.0000 -999.0000 0.0000 -999.0000
2022-05-25 04:00:00 2022-05-24 21:00:00 -999.0000 42.81 -999.00 3.4950 -999.0000 3.5 -999.0000 -999 3.3 -999.0000 -999.0000 0.006 12.7370 -999.0000 13.5 6.9 -999.0000 -999.0000 0.0000 -999.0000
2022-05-25 04:15:00 2022-05-24 21:15:00 -999.0000 42.81 -999.00 3.3690 -999.0000 3.3 -999.0000 -999 3.1 -999.0000 -999.0000 0.008 12.7340 -999.0000 13.4 0.9 -999.0000 -999.0000 0.0000 -999.0000
2022-05-25 04:30:00 2022-05-24 21:30:00 -999.0000 42.81 -999.00 3.2520 -999.0000 3.3 -999.0000 -999 3.0 -999.0000 -999.0000 0.007 12.7330 -999.0000 13.4 0.2 -999.0000 -999.0000 0.0000 -999.0000
2022-05-25 04:45:00 2022-05-24 21:45:00 -999.0000 42.81 -999.00 3.1480 -999.0000 3.0 -999.0000 -999 2.8 -999.0000 -999.0000 0.010 12.7360 -999.0000 13.4 0.1 -999.0000 -999.0000 0.0000 -999.0000
2022-05-25 05:00:00 2022-05-24 22:00:00 -999.0000 42.81 -999.00 3.0480 -999.0000 2.8 -999.0000 -999 2.6 -999.0000 -999.0000 0.010 12.7350 -999.0000 13.4 0.0 -999.0000 -999.0000 0.0000 -999.0000
2022-05-25 05:15:00 2022-05-24 22:15:00 -999.0000 42.81 -999.00 2.9120 -999.0000 2.6 -999.0000 -999 2.5 -999.0000 -999.0000 0.007 12.7330 -999.0000 13.3 0.0 -999.0000 -999.0000 0.0000 -999.0000
2022-05-25 05:30:00 2022-05-24 22:30:00 -999.0000 42.81 -999.00 2.8150 -999.0000 2.5 -999.0000 -999 2.3 -999.0000 -999.0000 0.010 12.7320 -999.0000 13.3 0.0 -999.0000 -999.0000 0.0000 -999.0000
2022-05-25 05:45:00 2022-05-24 22:45:00 -999.0000 42.81 -999.00 2.7370 -999.0000 2.3 -999.0000 -999 2.3 -999.0000 -999.0000 0.008 12.7310 -999.0000 13.3 0.1 -999.0000 -999.0000 0.0000 -999.0000
2022-05-25 06:00:00 2022-05-24 23:00:00 -999.0000 42.81 -999.00 2.6690 -999.0000 2.1 -999.0000 -999 2.2 -999.0000 -999.0000 0.009 12.7280 -999.0000 13.3 0.0 -999.0000 -999.0000 0.0000 -999.0000
2022-05-25 06:15:00 2022-05-24 23:15:00 -999.0000 42.81 -999.00 2.6030 -999.0000 1.9 -999.0000 -999 2.2 -999.0000 -999.0000 0.005 12.7270 -999.0000 13.2 0.0 -999.0000 -999.0000 0.0000 -999.0000
2022-05-25 06:30:00 2022-05-24 23:30:00 -999.0000 42.81 -999.00 2.5750 -999.0000 1.9 -999.0000 -999 2.2 -999.0000 -999.0000 0.011 12.7250 -999.0000 13.2 0.0 -999.0000 -999.0000 0.0000 -999.0000
2022-05-25 06:45:00 2022-05-24 23:45:00 -999.0000 42.81 -999.00 2.6140 -999.0000 1.9 -999.0000 -999 2.3 -999.0000 -999.0000 0.010 12.7250 -999.0000 13.2 0.0 -999.0000 -999.0000 0.0000 -999.0000
2022-05-25 07:00:00 2022-05-25 00:00:00 -999.0000 42.81 -999.00 2.6920 -999.0000 1.6 -999.0000 -999 2.4 -999.0000 -999.0000 0.013 12.7220 -999.0000 13.2 0.0 -999.0000 -999.0000 0.0000 -999.0000
2022-05-25 07:15:00 2022-05-25 00:15:00 -999.0000 42.81 -999.00 2.7040 -999.0000 1.8 -999.0000 -999 2.5 -999.0000 -999.0000 0.010 12.7220 -999.0000 13.2 0.0 -999.0000 -999.0000 0.0000 -999.0000
2022-05-25 07:30:00 2022-05-25 00:30:00 -999.0000 42.81 -999.00 2.7520 -999.0000 1.8 -999.0000 -999 2.5 -999.0000 -999.0000 0.010 12.7220 -999.0000 13.2 0.0 -999.0000 -999.0000 0.0000 -999.0000
2022-05-25 07:45:00 2022-05-25 00:45:00 -999.0000 42.81 -999.00 2.7630 -999.0000 1.8 -999.0000 -999 2.6 -999.0000 -999.0000 0.013 12.7220 -999.0000 13.1 0.0 -999.0000 -999.0000 0.0000 -999.0000
2022-05-25 08:00:00 2022-05-25 01:00:00 -999.0000 42.81 -999.00 2.8120 -999.0000 1.8 -999.0000 -999 2.6 -999.0000 -999.0000 0.011 12.7220 -999.0000 13.2 0.0 -999.0000 -999.0000 0.0000 -999.0000
2022-05-25 08:15:00 2022-05-25 01:15:00 -999.0000 42.81 -999.00 2.7310 -999.0000 1.6 -999.0000 -999 2.6 -999.0000 -999.0000 0.010 12.7170 -999.0000 13.1 0.0 -999.0000 -999.0000 0.0000 -999.0000
2022-05-25 08:30:00 2022-05-25 01:30:00 -999.0000 42.81 -999.00 2.7640 -999.0000 1.9 -999.0000 -999 2.6 -999.0000 -999.0000 0.010 12.7200 -999.0000 13.1 0.0 -999.0000 -999.0000 0.0000 -999.0000
2022-05-25 08:45:00 2022-05-25 01:45:00 -999.0000 42.81 -999.00 2.8200 -999.0000 1.9 -999.0000 -999 2.6 -999.0000 -999.0000 0.013 12.7220 -999.0000 13.1 0.0 -999.0000 -999.0000 0.0000 -999.0000
2022-05-25 09:00:00 2022-05-25 02:00:00 -999.0000 42.81 -999.00 2.8220 -999.0000 1.8 -999.0000 -999 2.7 -999.0000 -999.0000 0.012 12.7190 -999.0000 13.1 0.0 -999.0000 -999.0000 0.0000 -999.0000
2022-05-25 09:15:00 2022-05-25 02:15:00 -999.0000 42.81 -999.00 2.7660 -999.0000 1.8 -999.0000 -999 2.6 -999.0000 -999.0000 0.014 12.7210 -999.0000 13.1 0.0 -999.0000 -999.0000 0.0000 -999.0000
2022-05-25 09:30:00 2022-05-25 02:30:00 -999.0000 42.81 -999.00 2.7960 -999.0000 1.9 -999.0000 -999 2.6 -999.0000 -999.0000 0.013 12.7210 -999.0000 13.1 0.0 -999.0000 -999.0000 0.0000 -999.0000
2022-05-25 09:45:00 2022-05-25 02:45:00 -999.0000 42.81 -999.00 2.8070 -999.0000 1.8 -999.0000 -999 2.6 -999.0000 -999.0000 0.014 12.7220 -999.0000 13.1 0.0 -999.0000 -999.0000 0.0000 -999.0000
2022-05-25 10:00:00 2022-05-25 03:00:00 -999.0000 42.81 -999.00 2.8240 -999.0000 1.9 -999.0000 -999 2.6 -999.0000 -999.0000 0.011 12.7190 -999.0000 13.1 0.0 -999.0000 -999.0000 0.0000 -999.0000
2022-05-25 10:15:00 2022-05-25 03:15:00 -999.0000 42.81 -999.00 2.8110 -999.0000 1.9 -999.0000 -999 2.6 -999.0000 -999.0000 0.011 12.7210 -999.0000 13.1 0.0 -999.0000 -999.0000 0.0000 -999.0000
2022-05-25 10:30:00 2022-05-25 03:30:00 -999.0000 42.81 -999.00 2.7970 -999.0000 2.1 -999.0000 -999 2.6 -999.0000 -999.0000 0.009 12.7190 -999.0000 13.1 0.0 -999.0000 -999.0000 0.0000 -999.0000
2022-05-25 10:45:00 2022-05-25 03:45:00 -999.0000 42.81 -999.00 2.8080 -999.0000 1.9 -999.0000 -999 2.6 -999.0000 -999.0000 0.015 12.7210 -999.0000 13.1 0.0 -999.0000 -999.0000 0.0000 -999.0000
2022-05-25 11:00:00 2022-05-25 04:00:00 -999.0000 42.81 -999.00 2.8330 -999.0000 1.9 -999.0000 -999 2.6 -999.0000 -999.0000 0.002 12.7210 -999.0000 13.1 0.0 -999.0000 -999.0000 0.0000 -999.0000
2022-05-25 11:15:00 2022-05-25 04:15:00 -999.0000 42.81 -999.00 2.7430 -999.0000 1.9 -999.0000 -999 2.6 -999.0000 -999.0000 0.009 12.7210 -999.0000 13.1 0.1 -999.0000 -999.0000 0.0000 -999.0000
2022-05-25 11:30:00 2022-05-25 04:30:00 -999.0000 42.81 -999.00 2.8260 -999.0000 1.9 -999.0000 -999 2.6 -999.0000 -999.0000 0.005 12.7220 -999.0000 13.1 0.1 -999.0000 -999.0000 0.0000 -999.0000
2022-05-25 11:45:00 2022-05-25 04:45:00 -999.0000 42.81 -999.00 2.8350 -999.0000 1.9 -999.0000 -999 2.6 -999.0000 -999.0000 0.012 12.7190 -999.0000 13.1 0.3 -999.0000 -999.0000 0.0000 -999.0000
2022-05-25 12:00:00 2022-05-25 05:00:00 -999.0000 42.81 -999.00 2.8360 -999.0000 1.9 -999.0000 -999 2.6 -999.0000 -999.0000 0.008 12.7210 -999.0000 13.1 1.2 -999.0000 -999.0000 0.0000 -999.0000
2022-05-25 12:15:00 2022-05-25 05:15:00 -999.0000 42.81 -999.00 2.8420 -999.0000 1.9 -999.0000 -999 2.6 -999.0000 -999.0000 0.002 12.7210 -999.0000 13.1 7.7 -999.0000 -999.0000 0.0000 -999.0000
2022-05-25 12:30:00 2022-05-25 05:30:00 -999.0000 42.82 -999.00 2.8060 -999.0000 2.1 -999.0000 -999 2.6 -999.0000 -999.0000 0.003 12.7210 -999.0000 13.1 12.7 -999.0000 -999.0000 0.0000 -999.0000
2022-05-25 12:45:00 2022-05-25 05:45:00 -999.0000 42.82 -999.00 2.7900 -999.0000 1.9 -999.0000 -999 2.6 -999.0000 -999.0000 0.002 12.7200 -999.0000 13.0 13.0 -999.0000 -999.0000 0.0000 -999.0000
2022-05-25 13:00:00 2022-05-25 06:00:00 -999.0000 42.82 -999.00 2.7770 -999.0000 1.9 -999.0000 -999 2.6 -999.0000 -999.0000 -0.006 12.7210 -999.0000 13.1 13.1 -999.0000 -999.0000 0.0000 -999.0000
2022-05-25 13:15:00 2022-05-25 06:15:00 -999.0000 42.82 -999.00 2.8910 -999.0000 1.9 -999.0000 -999 2.7 -999.0000 -999.0000 0.005 12.7220 -999.0000 13.1 13.1 -999.0000 -999.0000 0.0000 -999.0000
2022-05-25 13:30:00 2022-05-25 06:30:00 -999.0000 42.82 -999.00 2.9220 -999.0000 2.1 -999.0000 -999 2.7 -999.0000 -999.0000 0.011 12.7210 -999.0000 13.1 13.1 -999.0000 -999.0000 0.0000 -999.0000
2022-05-25 13:45:00 2022-05-25 06:45:00 -999.0000 42.82 -999.00 2.9650 -999.0000 1.9 -999.0000 -999 2.7 -999.0000 -999.0000 -0.002 12.7240 -999.0000 13.1 13.1 -999.0000 -999.0000 0.0000 -999.0000
2022-05-25 14:00:00 2022-05-25 07:00:00 -999.0000 42.82 -999.00 3.0310 -999.0000 1.9 -999.0000 -999 2.8 -999.0000 -999.0000 -0.003 12.7260 -999.0000 13.1 13.1 -999.0000 -999.0000 0.0000 -999.0000
2022-05-25 14:15:00 2022-05-25 07:15:00 -999.0000 42.82 -999.00 3.0840 -999.0000 2.1 -999.0000 -999 2.9 -999.0000 -999.0000 -0.001 12.7290 -999.0000 13.1 13.1 -999.0000 -999.0000 0.0000 -999.0000
2022-05-25 14:30:00 2022-05-25 07:30:00 -999.0000 42.82 -999.00 3.1540 -999.0000 2.1 -999.0000 -999 3.0 -999.0000 -999.0000 0.006 12.7300 -999.0000 13.1 13.1 -999.0000 -999.0000 0.0000 -999.0000
2022-05-25 14:45:00 2022-05-25 07:45:00 -999.0000 42.82 -999.00 3.3030 -999.0000 2.3 -999.0000 -999 3.2 -999.0000 -999.0000 0.002 12.7320 -999.0000 13.2 13.2 -999.0000 -999.0000 0.0000 -999.0000
2022-05-25 15:00:00 2022-05-25 08:00:00 -999.0000 42.82 -999.00 3.3590 -999.0000 2.3 -999.0000 -999 3.3 -999.0000 -999.0000 0.000 12.7300 -999.0000 13.2 13.2 -999.0000 -999.0000 0.0000 -999.0000
2022-05-25 15:15:00 2022-05-25 08:15:00 -999.0000 42.82 -999.00 3.4740 -999.0000 2.5 -999.0000 -999 3.4 -999.0000 -999.0000 -0.001 12.7330 -999.0000 13.2 13.2 -999.0000 -999.0000 0.0000 -999.0000
2022-05-25 15:30:00 2022-05-25 08:30:00 -999.0000 42.82 -999.00 3.5660 -999.0000 2.6 -999.0000 -999 3.5 -999.0000 -999.0000 -0.008 12.7370 -999.0000 13.2 13.3 -999.0000 -999.0000 0.0000 -999.0000
2022-05-25 15:45:00 2022-05-25 08:45:00 -999.0000 42.82 -999.00 3.6830 -999.0000 2.8 -999.0000 -999 3.7 -999.0000 -999.0000 -0.009 12.7390 -999.0000 13.3 13.3 -999.0000 -999.0000 0.0000 -999.0000
2022-05-25 16:00:00 2022-05-25 09:00:00 -999.0000 42.82 -999.00 3.7990 -999.0000 2.8 -999.0000 -999 4.0 -999.0000 -999.0000 -0.005 12.7430 -999.0000 13.4 13.5 -999.0000 -999.0000 0.0000 -999.0000
2022-05-25 16:15:00 2022-05-25 09:15:00 -999.0000 42.82 -999.00 3.9570 -999.0000 3.2 -999.0000 -999 4.2 -999.0000 -999.0000 -0.012 12.7450 -999.0000 13.5 13.5 -999.0000 -999.0000 0.0000 -999.0000
2022-05-25 16:30:00 2022-05-25 09:30:00 -999.0000 42.82 -999.00 4.0430 -999.0000 3.3 -999.0000 -999 4.4 -999.0000 -999.0000 -0.012 12.7460 -999.0000 13.6 13.7 -999.0000 -999.0000 0.0000 -999.0000
2022-05-25 16:45:00 2022-05-25 09:45:00 -999.0000 42.82 -999.00 4.2270 -999.0000 3.5 -999.0000 -999 4.8 -999.0000 -999.0000 -0.010 12.7460 -999.0000 14.0 14.1 -999.0000 -999.0000 0.0000 -999.0000
2022-05-25 17:00:00 2022-05-25 10:00:00 -999.0000 42.82 -999.00 4.6080 -999.0000 3.9 -999.0000 -999 5.9 -999.0000 -999.0000 -0.005 12.7450 -999.0000 13.8 22.5 -999.0000 -999.0000 0.0000 -999.0000
2022-05-25 17:15:00 2022-05-25 10:15:00 -999.0000 42.82 -999.00 5.8820 -999.0000 4.7 -999.0000 -999 9.9 -999.0000 -999.0000 0.008 12.7450 -999.0000 13.9 21.7 -999.0000 -999.0000 0.0000 -999.0000
2022-05-25 17:30:00 2022-05-25 10:30:00 -999.0000 42.82 -999.00 6.5180 -999.0000 7.2 -999.0000 -999 9.9 -999.0000 -999.0000 -0.001 12.7470 -999.0000 14.2 14.4 -999.0000 -999.0000 0.0000 -999.0000
2022-05-25 17:45:00 2022-05-25 10:45:00 -999.0000 42.82 -999.00 6.3680 -999.0000 8.5 -999.0000 -999 8.9 -999.0000 -999.0000 0.002 12.7480 -999.0000 13.8 22.5 -999.0000 -999.0000 0.0000 -999.0000
2022-05-25 18:00:00 2022-05-25 11:00:00 -999.0000 42.82 -999.00 7.4670 -999.0000 10.1 -999.0000 -999 12.3 -999.0000 -999.0000 -0.010 12.7520 -999.0000 14.0 20.4 -999.0000 -999.0000 0.0000 -999.0000
2022-05-25 18:15:00 2022-05-25 11:15:00 -999.0000 42.82 -999.00 7.4750 -999.0000 11.7 -999.0000 -999 10.3 -999.0000 -999.0000 0.013 12.7530 -999.0000 13.8 20.5 -999.0000 -999.0000 0.0000 -999.0000
2022-05-25 18:30:00 2022-05-25 11:30:00 -999.0000 42.82 -999.00 6.9030 -999.0000 12.0 -999.0000 -999 8.9 -999.0000 -999.0000 -0.012 12.7520 -999.0000 13.9 21.3 -999.0000 -999.0000 0.0000 -999.0000
2022-05-25 18:45:00 2022-05-25 11:45:00 -999.0000 42.82 -999.00 6.9310 -999.0000 12.0 -999.0000 -999 9.0 -999.0000 -999.0000 -0.002 12.7540 -999.0000 14.3 14.5 -999.0000 -999.0000 0.0000 -999.0000
2022-05-25 19:00:00 2022-05-25 12:00:00 -999.0000 42.82 -999.00 7.2060 -999.0000 12.0 -999.0000 -999 10.9 -999.0000 -999.0000 -0.007 12.7560 -999.0000 13.8 21.5 -999.0000 -999.0000 0.0000 -999.0000
2022-05-25 19:15:00 2022-05-25 12:15:00 -999.0000 42.82 -999.00 8.9130 -999.0000 12.7 -999.0000 -999 14.8 -999.0000 -999.0000 0.013 12.7580 -999.0000 13.9 21.0 -999.0000 -999.0000 0.0000 -999.0000
2022-05-25 19:30:00 2022-05-25 12:30:00 -999.0000 42.82 -999.00 11.5230 -999.0000 14.5 -999.0000 -999 18.4 -999.0000 -999.0000 0.006 12.7580 -999.0000 13.8 20.4 -999.0000 -999.0000 0.0000 -999.0000
2022-05-25 19:45:00 2022-05-25 12:45:00 -999.0000 42.82 -999.00 12.3610 -999.0000 16.7 -999.0000 -999 18.3 -999.0000 -999.0000 0.002 12.7590 -999.0000 13.7 20.1 -999.0000 -999.0000 0.0000 -999.0000
2022-05-25 20:00:00 2022-05-25 13:00:00 -999.0000 42.82 -999.00 11.4900 -999.0000 17.6 -999.0000 -999 17.0 -999.0000 -999.0000 0.023 12.7600 -999.0000 13.7 21.4 -999.0000 -999.0000 0.0000 -999.0000
2022-05-25 20:15:00 2022-05-25 13:15:00 -999.0000 42.82 -999.00 12.2190 -999.0000 18.1 -999.0000 -999 21.3 -999.0000 -999.0000 0.025 12.7590 -999.0000 13.9 20.5 -999.0000 -999.0000 0.0000 -999.0000
2022-05-25 20:30:00 2022-05-25 13:30:00 -999.0000 42.82 -999.00 12.7600 -999.0000 19.0 -999.0000 -999 23.3 -999.0000 -999.0000 0.011 12.7590 -999.0000 13.7 20.3 -999.0000 -999.0000 0.0000 -999.0000
2022-05-25 20:45:00 2022-05-25 13:45:00 -999.0000 42.82 -999.00 12.6110 -999.0000 19.8 -999.0000 -999 19.2 -999.0000 -999.0000 -0.001 12.7610 -999.0000 13.7 20.1 -999.0000 -999.0000 0.0000 -999.0000
2022-05-25 21:00:00 2022-05-25 14:00:00 -999.0000 42.82 -999.00 11.5830 -999.0000 19.8 -999.0000 -999 16.2 -999.0000 -999.0000 -0.009 12.7570 -999.0000 13.8 20.4 -999.0000 -999.0000 0.0000 -999.0000
2022-05-25 21:15:00 2022-05-25 14:15:00 -999.0000 42.82 -999.00 10.8970 -999.0000 19.3 -999.0000 -999 16.7 -999.0000 -999.0000 0.012 12.7580 -999.0000 13.7 21.2 -999.0000 -999.0000 0.0000 -999.0000
2022-05-25 21:30:00 2022-05-25 14:30:00 -999.0000 42.82 -999.00 11.0760 -999.0000 19.3 -999.0000 -999 18.8 -999.0000 -999.0000 -0.001 12.7570 -999.0000 13.8 21.5 -999.0000 -999.0000 0.0000 -999.0000
2022-05-25 21:45:00 2022-05-25 14:45:00 -999.0000 42.82 -999.00 12.5700 -999.0000 20.4 -999.0000 -999 23.2 -999.0000 -999.0000 0.015 12.7560 -999.0000 13.7 20.6 -999.0000 -999.0000 0.0000 -999.0000
2022-05-25 22:00:00 2022-05-25 15:00:00 -999.0000 42.82 -999.00 10.8500 -999.0000 21.4 -999.0000 -999 17.6 -999.0000 -999.0000 -0.013 12.7570 -999.0000 13.7 20.5 -999.0000 -999.0000 0.0000 -999.0000
2022-05-25 22:15:00 2022-05-25 15:15:00 -999.0000 42.82 -999.00 9.9280 -999.0000 21.1 -999.0000 -999 14.3 -999.0000 -999.0000 -0.007 12.7590 -999.0000 13.7 20.7 -999.0000 -999.0000 0.0000 -999.0000
2022-05-25 22:30:00 2022-05-25 15:30:00 -999.0000 42.82 -999.00 9.4500 -999.0000 19.7 -999.0000 -999 12.5 -999.0000 -999.0000 -0.010 12.7580 -999.0000 14.3 14.4 -999.0000 -999.0000 0.0000 -999.0000
2022-05-25 22:45:00 2022-05-25 15:45:00 -999.0000 42.82 -999.00 8.6000 -999.0000 18.1 -999.0000 -999 11.3 -999.0000 -999.0000 -0.002 12.7570 -999.0000 13.7 20.6 -999.0000 -999.0000 0.0000 -999.0000
2022-05-25 23:00:00 2022-05-25 16:00:00 -999.0000 42.82 -999.00 8.0870 -999.0000 16.5 -999.0000 -999 10.5 -999.0000 -999.0000 0.004 12.7550 -999.0000 13.7 20.9 -999.0000 -999.0000 0.0000 -999.0000
2022-05-25 23:15:00 2022-05-25 16:15:00 -999.0000 42.82 -999.00 7.9450 -999.0000 15.5 -999.0000 -999 10.4 -999.0000 -999.0000 -0.005 12.7540 -999.0000 13.7 20.9 -999.0000 -999.0000 0.0000 -999.0000
2022-05-25 23:30:00 2022-05-25 16:30:00 -999.0000 42.82 -999.00 7.9360 -999.0000 14.5 -999.0000 -999 9.9 -999.0000 -999.0000 0.007 12.7550 -999.0000 13.7 20.9 -999.0000 -999.0000 0.0000 -999.0000
2022-05-25 23:45:00 2022-05-25 16:45:00 -999.0000 42.82 -999.00 8.0680 -999.0000 13.6 -999.0000 -999 9.6 -999.0000 -999.0000 0.008 12.7550 -999.0000 13.8 13.9 -999.0000 -999.0000 0.0000 -999.0000
2022-05-26 00:00:00 2022-05-25 17:00:00 -999.0000 42.82 -999.00 8.2630 -999.0000 13.1 -999.0000 -999 9.4 -999.0000 -999.0000 0.001 12.7510 -999.0000 13.7 20.5 -999.0000 -999.0000 0.0000 -999.0000
2022-05-26 00:15:00 2022-05-25 17:15:00 -999.0000 42.82 -999.00 8.1200 -999.0000 12.4 -999.0000 -999 9.0 -999.0000 -999.0000 -0.008 12.7490 -999.0000 13.8 20.6 -999.0000 -999.0000 0.0000 -999.0000
2022-05-26 00:30:00 2022-05-25 17:30:00 -999.0000 42.82 -999.00 8.0520 -999.0000 12.0 -999.0000 -999 8.5 -999.0000 -999.0000 0.001 12.7490 -999.0000 14.4 14.5 -999.0000 -999.0000 0.0000 -999.0000
2022-05-26 00:45:00 2022-05-25 17:45:00 -999.0000 42.82 -999.00 7.6720 -999.0000 11.3 -999.0000 -999 8.4 -999.0000 -999.0000 -0.004 12.7470 -999.0000 14.0 20.5 -999.0000 -999.0000 0.0000 -999.0000
2022-05-26 01:00:00 2022-05-25 18:00:00 -999.0000 42.82 -999.00 7.3270 -999.0000 10.8 -999.0000 -999 8.1 -999.0000 -999.0000 -0.005 12.7440 -999.0000 14.2 14.2 -999.0000 -999.0000 0.0000 -999.0000
2022-05-26 01:15:00 2022-05-25 18:15:00 -999.0000 42.82 -999.00 7.2240 -999.0000 10.5 -999.0000 -999 7.5 -999.0000 -999.0000 -0.011 12.7440 -999.0000 13.8 13.8 -999.0000 -999.0000 0.0000 -999.0000
2022-05-26 01:30:00 2022-05-25 18:30:00 -999.0000 42.82 -999.00 7.0490 -999.0000 9.9 -999.0000 -999 7.0 -999.0000 -999.0000 0.000 12.7430 -999.0000 13.9 13.9 -999.0000 -999.0000 0.0000 -999.0000
2022-05-26 01:45:00 2022-05-25 18:45:00 -999.0000 42.82 -999.00 6.6510 -999.0000 9.2 -999.0000 -999 6.5 -999.0000 -999.0000 -0.008 12.7410 -999.0000 13.9 13.9 -999.0000 -999.0000 0.0000 -999.0000
2022-05-26 02:00:00 2022-05-25 19:00:00 -999.0000 42.82 -999.00 6.3910 -999.0000 8.7 -999.0000 -999 6.1 -999.0000 -999.0000 0.002 12.7400 -999.0000 13.8 13.9 -999.0000 -999.0000 0.0000 -999.0000
2022-05-26 02:15:00 2022-05-25 19:15:00 -999.0000 42.82 -999.00 6.1000 -999.0000 8.2 -999.0000 -999 5.8 -999.0000 -999.0000 -0.003 12.7400 -999.0000 13.7 13.7 -999.0000 -999.0000 0.0000 -999.0000
2022-05-26 02:30:00 2022-05-25 19:30:00 -999.0000 42.82 -999.00 5.9000 -999.0000 7.7 -999.0000 -999 5.5 -999.0000 -999.0000 0.000 12.7410 -999.0000 13.7 13.8 -999.0000 -999.0000 0.0000 -999.0000
2022-05-26 02:45:00 2022-05-25 19:45:00 -999.0000 42.82 -999.00 5.6380 -999.0000 7.2 -999.0000 -999 5.3 -999.0000 -999.0000 -0.003 12.7400 -999.0000 13.8 13.9 -999.0000 -999.0000 0.0000 -999.0000
2022-05-26 03:00:00 2022-05-25 20:00:00 -999.0000 42.82 -999.00 5.4040 -999.0000 6.6 -999.0000 -999 5.1 -999.0000 -999.0000 -0.002 12.7420 -999.0000 13.8 13.8 -999.0000 -999.0000 0.0000 -999.0000
2022-05-26 03:15:00 2022-05-25 20:15:00 -999.0000 42.82 -999.00 5.2400 -999.0000 6.3 -999.0000 -999 4.9 -999.0000 -999.0000 -0.001 12.7410 -999.0000 13.7 13.6 -999.0000 -999.0000 0.0000 -999.0000
2022-05-26 03:30:00 2022-05-25 20:30:00 -999.0000 42.82 -999.00 4.9920 -999.0000 5.9 -999.0000 -999 4.5 -999.0000 -999.0000 -0.011 12.7400 -999.0000 13.6 13.6 -999.0000 -999.0000 0.0000 -999.0000
2022-05-26 03:45:00 2022-05-25 20:45:00 -999.0000 42.82 -999.00 4.7460 -999.0000 5.6 -999.0000 -999 4.2 -999.0000 -999.0000 -0.008 12.7390 -999.0000 13.6 12.7 -999.0000 -999.0000 0.0000 -999.0000
2022-05-26 04:00:00 2022-05-25 21:00:00 -999.0000 42.82 -999.00 4.4910 -999.0000 5.1 -999.0000 -999 4.0 -999.0000 -999.0000 -0.003 12.7390 -999.0000 13.5 8.3 -999.0000 -999.0000 0.0000 -999.0000
2022-05-26 04:15:00 2022-05-25 21:15:00 -999.0000 42.82 -999.00 4.2390 -999.0000 4.9 -999.0000 -999 3.8 -999.0000 -999.0000 -0.007 12.7400 -999.0000 13.5 1.6 -999.0000 -999.0000 0.0000 -999.0000
2022-05-26 04:30:00 2022-05-25 21:30:00 -999.0000 42.82 -999.00 4.0150 -999.0000 4.4 -999.0000 -999 3.6 -999.0000 -999.0000 -0.006 12.7400 -999.0000 13.4 0.2 -999.0000 -999.0000 0.0000 -999.0000
2022-05-26 04:45:00 2022-05-25 21:45:00 -999.0000 42.82 -999.00 3.8160 -999.0000 4.0 -999.0000 -999 3.4 -999.0000 -999.0000 -0.004 12.7400 -999.0000 13.4 0.1 -999.0000 -999.0000 0.0000 -999.0000
2022-05-26 05:00:00 2022-05-25 22:00:00 -999.0000 42.82 -999.00 3.6820 -999.0000 3.7 -999.0000 -999 3.2 -999.0000 -999.0000 -0.009 12.7370 -999.0000 13.4 0.0 -999.0000 -999.0000 0.0000 -999.0000
2022-05-26 05:15:00 2022-05-25 22:15:00 -999.0000 42.82 -999.00 3.5210 -999.0000 3.5 -999.0000 -999 3.1 -999.0000 -999.0000 -0.004 12.7370 -999.0000 13.3 0.0 -999.0000 -999.0000 0.0000 -999.0000
2022-05-26 05:30:00 2022-05-25 22:30:00 -999.0000 42.82 -999.00 3.3860 -999.0000 3.3 -999.0000 -999 3.0 -999.0000 -999.0000 0.013 12.7340 -999.0000 13.3 0.1 -999.0000 -999.0000 0.0000 -999.0000
2022-05-26 05:45:00 2022-05-25 22:45:00 -999.0000 42.82 -999.00 3.3320 -999.0000 3.0 -999.0000 -999 3.0 -999.0000 -999.0000 0.011 12.7340 -999.0000 13.3 0.0 -999.0000 -999.0000 0.0000 -999.0000
2022-05-26 06:00:00 2022-05-25 23:00:00 -999.0000 42.82 -999.00 3.2870 -999.0000 2.8 -999.0000 -999 2.9 -999.0000 -999.0000 0.006 12.7370 -999.0000 13.3 0.0 -999.0000 -999.0000 0.0000 -999.0000
2022-05-26 06:15:00 2022-05-25 23:15:00 -999.0000 42.82 -999.00 3.1300 -999.0000 2.6 -999.0000 -999 2.7 -999.0000 -999.0000 0.005 12.7340 -999.0000 13.3 0.1 -999.0000 -999.0000 0.0000 -999.0000
2022-05-26 06:30:00 2022-05-25 23:30:00 -999.0000 42.82 -999.00 3.0160 -999.0000 2.5 -999.0000 -999 2.5 -999.0000 -999.0000 0.017 12.7320 -999.0000 13.3 0.0 -999.0000 -999.0000 0.0000 -999.0000
2022-05-26 06:45:00 2022-05-25 23:45:00 -999.0000 42.82 -999.00 2.9430 -999.0000 2.3 -999.0000 -999 2.4 -999.0000 -999.0000 0.022 12.7320 -999.0000 13.2 0.1 -999.0000 -999.0000 0.0000 -999.0000